<?xml version="1.0" encoding="UTF-8" standalone="no" ?>
<gpx xmlns="http://www.topografix.com/GPX/1/1" xmlns:xsi="http://www.w3.org/2001/XMLSchema-instance" xsi:schemaLocation="http://www.topografix.com/GPX/1/1 http://www.topografix.com/GPX/1/1/gpx.xsd" version="1.1" creator="VisuGPX - https://www.visugpx.com">
  <metadata>
    <name>Valsenestre</name>
  </metadata>
  <trk>
    <name><![CDATA[Valsenestre_1]]></name>
    <trkseg>
      <trkpt lat="44.90198" lon="5.94925">
        <ele>808</ele>
        <time>2026-08-08T08:24:02.000Z</time>
      </trkpt>
      <trkpt lat="44.90198" lon="5.94925">
        <ele>808</ele>
        <time>2026-08-08T08:24:02.000Z</time>
        <extensions>
          <visugpx:TrkExtension xmlns:visugpx="https://www.visugpx.com/editgpx/">
            <visugpx:node>1</visugpx:node>
            </visugpx:TrkExtension>
        </extensions>
      </trkpt>
      <trkpt lat="44.90203" lon="5.94914">
        <ele>808</ele>
        <time>2026-08-08T08:24:03.056Z</time>
      </trkpt>
      <trkpt lat="44.90194" lon="5.94874">
        <ele>808</ele>
        <time>2026-08-08T08:24:06.536Z</time>
      </trkpt>
      <trkpt lat="44.90182" lon="5.94881">
        <ele>807.9</ele>
        <time>2026-08-08T08:24:07.938Z</time>
      </trkpt>
      <trkpt lat="44.9016" lon="5.94894">
        <ele>807.6</ele>
        <time>2026-08-08T08:24:10.494Z</time>
      </trkpt>
      <trkpt lat="44.90155" lon="5.94895">
        <ele>807.4</ele>
        <time>2026-08-08T08:24:10.868Z</time>
      </trkpt>
      <trkpt lat="44.90147" lon="5.94897">
        <ele>807</ele>
        <time>2026-08-08T08:24:11.539Z</time>
      </trkpt>
      <trkpt lat="44.90143" lon="5.94915">
        <ele>807.9</ele>
        <time>2026-08-08T08:24:15.001Z</time>
      </trkpt>
      <trkpt lat="44.90143" lon="5.94916">
        <ele>807.9</ele>
        <time>2026-08-08T08:24:15.037Z</time>
      </trkpt>
      <trkpt lat="44.9014" lon="5.94923">
        <ele>808.2</ele>
        <time>2026-08-08T08:24:16.306Z</time>
      </trkpt>
      <trkpt lat="44.90136" lon="5.94926">
        <ele>807.9</ele>
        <time>2026-08-08T08:24:16.617Z</time>
      </trkpt>
      <trkpt lat="44.90125" lon="5.94934">
        <ele>807</ele>
        <time>2026-08-08T08:24:17.487Z</time>
      </trkpt>
      <trkpt lat="44.90104" lon="5.94947">
        <ele>805.7</ele>
        <time>2026-08-08T08:24:19.236Z</time>
      </trkpt>
      <trkpt lat="44.901" lon="5.9495">
        <ele>805.3</ele>
        <time>2026-08-08T08:24:19.506Z</time>
      </trkpt>
      <trkpt lat="44.90078" lon="5.94963">
        <ele>803.6</ele>
        <time>2026-08-08T08:24:21.239Z</time>
      </trkpt>
      <trkpt lat="44.90074" lon="5.94965">
        <ele>803.1</ele>
        <time>2026-08-08T08:24:21.501Z</time>
      </trkpt>
      <trkpt lat="44.90069" lon="5.94968">
        <ele>802.4</ele>
        <time>2026-08-08T08:24:21.929Z</time>
      </trkpt>
      <trkpt lat="44.90048" lon="5.95005">
        <ele>806</ele>
        <time>2026-08-08T08:24:36.479Z</time>
      </trkpt>
      <trkpt lat="44.90037" lon="5.95022">
        <ele>807.5</ele>
        <time>2026-08-08T08:24:42.349Z</time>
      </trkpt>
      <trkpt lat="44.90034" lon="5.95026">
        <ele>808.1</ele>
        <time>2026-08-08T08:24:44.463Z</time>
      </trkpt>
      <trkpt lat="44.90014" lon="5.95049">
        <ele>809.4</ele>
        <time>2026-08-08T08:24:49.840Z</time>
      </trkpt>
      <trkpt lat="44.89982" lon="5.95076">
        <ele>809.5</ele>
        <time>2026-08-08T08:24:54.276Z</time>
      </trkpt>
      <trkpt lat="44.89963" lon="5.95096">
        <ele>809.2</ele>
        <time>2026-08-08T08:24:56.752Z</time>
      </trkpt>
      <trkpt lat="44.89928" lon="5.95131">
        <ele>810</ele>
        <time>2026-08-08T08:25:02.875Z</time>
      </trkpt>
      <trkpt lat="44.89923" lon="5.95139">
        <ele>811</ele>
        <time>2026-08-08T08:25:06.799Z</time>
      </trkpt>
      <trkpt lat="44.89919" lon="5.9515">
        <ele>811.9</ele>
        <time>2026-08-08T08:25:10.378Z</time>
      </trkpt>
      <trkpt lat="44.89917" lon="5.95166">
        <ele>814</ele>
        <time>2026-08-08T08:25:16.006Z</time>
      </trkpt>
      <trkpt lat="44.89918" lon="5.95187">
        <ele>817.9</ele>
        <time>2026-08-08T08:25:23.758Z</time>
      </trkpt>
      <trkpt lat="44.89915" lon="5.95201">
        <ele>820.1</ele>
        <time>2026-08-08T08:25:28.984Z</time>
      </trkpt>
      <trkpt lat="44.89913" lon="5.95207">
        <ele>820.7</ele>
        <time>2026-08-08T08:25:31.157Z</time>
      </trkpt>
      <trkpt lat="44.89901" lon="5.95219">
        <ele>821.6</ele>
        <time>2026-08-08T08:25:34.659Z</time>
      </trkpt>
      <trkpt lat="44.89891" lon="5.9522">
        <ele>820.8</ele>
        <time>2026-08-08T08:25:35.351Z</time>
      </trkpt>
      <trkpt lat="44.89884" lon="5.9522">
        <ele>820</ele>
        <time>2026-08-08T08:25:35.889Z</time>
      </trkpt>
      <trkpt lat="44.89872" lon="5.95218">
        <ele>818.3</ele>
        <time>2026-08-08T08:25:36.753Z</time>
      </trkpt>
      <trkpt lat="44.89855" lon="5.9522">
        <ele>816.9</ele>
        <time>2026-08-08T08:25:37.927Z</time>
      </trkpt>
      <trkpt lat="44.89836" lon="5.95229">
        <ele>817</ele>
        <time>2026-08-08T08:25:40.441Z</time>
      </trkpt>
      <trkpt lat="44.89818" lon="5.95241">
        <ele>817.2</ele>
        <time>2026-08-08T08:25:42.984Z</time>
      </trkpt>
      <trkpt lat="44.89807" lon="5.95257">
        <ele>819.4</ele>
        <time>2026-08-08T08:25:51.181Z</time>
      </trkpt>
      <trkpt lat="44.89772" lon="5.95316">
        <ele>826.9</ele>
        <time>2026-08-08T08:26:18.753Z</time>
      </trkpt>
      <trkpt lat="44.8974" lon="5.95378">
        <ele>835.7</ele>
        <time>2026-08-08T08:26:46.211Z</time>
      </trkpt>
      <trkpt lat="44.89725" lon="5.95396">
        <ele>837.1</ele>
        <time>2026-08-08T08:26:51.579Z</time>
      </trkpt>
      <trkpt lat="44.89707" lon="5.95416">
        <ele>841</ele>
        <time>2026-08-08T08:27:03.290Z</time>
      </trkpt>
      <trkpt lat="44.89687" lon="5.95423">
        <ele>840.6</ele>
        <time>2026-08-08T08:27:05.293Z</time>
      </trkpt>
      <trkpt lat="44.89654" lon="5.95418">
        <ele>835.7</ele>
        <time>2026-08-08T08:27:07.645Z</time>
      </trkpt>
      <trkpt lat="44.89597" lon="5.95402">
        <ele>827.8</ele>
        <time>2026-08-08T08:27:11.788Z</time>
      </trkpt>
      <trkpt lat="44.89571" lon="5.95409">
        <ele>828.7</ele>
        <time>2026-08-08T08:27:16.231Z</time>
      </trkpt>
      <trkpt lat="44.89549" lon="5.95423">
        <ele>831.2</ele>
        <time>2026-08-08T08:27:26.250Z</time>
      </trkpt>
      <trkpt lat="44.89522" lon="5.95445">
        <ele>835</ele>
        <time>2026-08-08T08:27:41.525Z</time>
      </trkpt>
      <trkpt lat="44.89468" lon="5.95484">
        <ele>840.7</ele>
        <time>2026-08-08T08:28:04.013Z</time>
      </trkpt>
      <trkpt lat="44.89457" lon="5.95491">
        <ele>842.2</ele>
        <time>2026-08-08T08:28:10.033Z</time>
      </trkpt>
      <trkpt lat="44.89426" lon="5.95511">
        <ele>846</ele>
        <time>2026-08-08T08:28:25.413Z</time>
      </trkpt>
      <trkpt lat="44.89398" lon="5.9552">
        <ele>847.7</ele>
        <time>2026-08-08T08:28:32.084Z</time>
      </trkpt>
      <trkpt lat="44.89387" lon="5.95524">
        <ele>848.8</ele>
        <time>2026-08-08T08:28:36.457Z</time>
      </trkpt>
      <trkpt lat="44.89354" lon="5.95519">
        <ele>846.1</ele>
        <time>2026-08-08T08:28:38.817Z</time>
      </trkpt>
      <trkpt lat="44.89319" lon="5.95537">
        <ele>848.8</ele>
        <time>2026-08-08T08:28:49.167Z</time>
      </trkpt>
      <trkpt lat="44.89272" lon="5.95565">
        <ele>848.2</ele>
        <time>2026-08-08T08:28:54.480Z</time>
      </trkpt>
      <trkpt lat="44.8926" lon="5.9558">
        <ele>848.4</ele>
        <time>2026-08-08T08:28:56.644Z</time>
      </trkpt>
      <trkpt lat="44.89245" lon="5.95634">
        <ele>854.8</ele>
        <time>2026-08-08T08:29:17.451Z</time>
      </trkpt>
      <trkpt lat="44.89229" lon="5.95701">
        <ele>862.7</ele>
        <time>2026-08-08T08:29:43.050Z</time>
      </trkpt>
      <trkpt lat="44.89218" lon="5.95721">
        <ele>861.3</ele>
        <time>2026-08-08T08:29:44.329Z</time>
      </trkpt>
      <trkpt lat="44.89207" lon="5.95738">
        <ele>858.6</ele>
        <time>2026-08-08T08:29:45.483Z</time>
      </trkpt>
      <trkpt lat="44.89199" lon="5.95752">
        <ele>856.7</ele>
        <time>2026-08-08T08:29:46.358Z</time>
      </trkpt>
      <trkpt lat="44.89183" lon="5.95836">
        <ele>862.2</ele>
        <time>2026-08-08T08:30:07.810Z</time>
      </trkpt>
      <trkpt lat="44.89174" lon="5.95894">
        <ele>868.2</ele>
        <time>2026-08-08T08:30:29.027Z</time>
      </trkpt>
      <trkpt lat="44.89165" lon="5.9593">
        <ele>871.1</ele>
        <time>2026-08-08T08:30:40.706Z</time>
      </trkpt>
      <trkpt lat="44.89151" lon="5.95961">
        <ele>873.2</ele>
        <time>2026-08-08T08:30:48.796Z</time>
      </trkpt>
      <trkpt lat="44.89124" lon="5.95993">
        <ele>871.5</ele>
        <time>2026-08-08T08:30:51.597Z</time>
      </trkpt>
      <trkpt lat="44.89112" lon="5.96009">
        <ele>871</ele>
        <time>2026-08-08T08:30:53.053Z</time>
      </trkpt>
      <trkpt lat="44.891" lon="5.96031">
        <ele>871.3</ele>
        <time>2026-08-08T08:30:55.774Z</time>
      </trkpt>
      <trkpt lat="44.89094" lon="5.96049">
        <ele>872.5</ele>
        <time>2026-08-08T08:31:00.413Z</time>
      </trkpt>
      <trkpt lat="44.89089" lon="5.96082">
        <ele>875.2</ele>
        <time>2026-08-08T08:31:11.340Z</time>
      </trkpt>
      <trkpt lat="44.89083" lon="5.96111">
        <ele>878</ele>
        <time>2026-08-08T08:31:22.102Z</time>
      </trkpt>
      <trkpt lat="44.89072" lon="5.96148">
        <ele>880.9</ele>
        <time>2026-08-08T08:31:33.739Z</time>
      </trkpt>
      <trkpt lat="44.89056" lon="5.96177">
        <ele>879.4</ele>
        <time>2026-08-08T08:31:35.702Z</time>
      </trkpt>
      <trkpt lat="44.89045" lon="5.96201">
        <ele>877.8</ele>
        <time>2026-08-08T08:31:37.149Z</time>
      </trkpt>
      <trkpt lat="44.89035" lon="5.96227">
        <ele>876.2</ele>
        <time>2026-08-08T08:31:38.626Z</time>
      </trkpt>
      <trkpt lat="44.88996" lon="5.9631">
        <ele>877.1</ele>
        <time>2026-08-08T08:31:48.060Z</time>
      </trkpt>
      <trkpt lat="44.88979" lon="5.96352">
        <ele>878.8</ele>
        <time>2026-08-08T08:31:55.114Z</time>
      </trkpt>
      <trkpt lat="44.8896" lon="5.96427">
        <ele>886.9</ele>
        <time>2026-08-08T08:32:23.420Z</time>
      </trkpt>
      <trkpt lat="44.88949" lon="5.96465">
        <ele>885.5</ele>
        <time>2026-08-08T08:32:25.742Z</time>
      </trkpt>
      <trkpt lat="44.88941" lon="5.96482">
        <ele>884.1</ele>
        <time>2026-08-08T08:32:26.796Z</time>
      </trkpt>
      <trkpt lat="44.88932" lon="5.96531">
        <ele>891.1</ele>
        <time>2026-08-08T08:32:45.129Z</time>
      </trkpt>
      <trkpt lat="44.88924" lon="5.96569">
        <ele>893.2</ele>
        <time>2026-08-08T08:32:53.178Z</time>
      </trkpt>
      <trkpt lat="44.8891" lon="5.96598">
        <ele>889.7</ele>
        <time>2026-08-08T08:32:54.943Z</time>
      </trkpt>
      <trkpt lat="44.88903" lon="5.96617">
        <ele>889.8</ele>
        <time>2026-08-08T08:32:56.864Z</time>
      </trkpt>
      <trkpt lat="44.88872" lon="5.96641">
        <ele>881.5</ele>
        <time>2026-08-08T08:32:59.336Z</time>
      </trkpt>
      <trkpt lat="44.8885" lon="5.96652">
        <ele>880.2</ele>
        <time>2026-08-08T08:33:01.156Z</time>
      </trkpt>
      <trkpt lat="44.88814" lon="5.96687">
        <ele>884.1</ele>
        <time>2026-08-08T08:33:16.383Z</time>
      </trkpt>
      <trkpt lat="44.88799" lon="5.96707">
        <ele>885.3</ele>
        <time>2026-08-08T08:33:21.086Z</time>
      </trkpt>
      <trkpt lat="44.88788" lon="5.96718">
        <ele>886.3</ele>
        <time>2026-08-08T08:33:24.918Z</time>
      </trkpt>
      <trkpt lat="44.88666" lon="5.96791">
        <ele>889.1</ele>
        <time>2026-08-08T08:33:44.317Z</time>
      </trkpt>
      <trkpt lat="44.88661" lon="5.96794">
        <ele>889.2</ele>
        <time>2026-08-08T08:33:45.128Z</time>
      </trkpt>
      <trkpt lat="44.88655" lon="5.96798">
        <ele>889.4</ele>
        <time>2026-08-08T08:33:46.135Z</time>
      </trkpt>
      <trkpt lat="44.88546" lon="5.96864">
        <ele>891.6</ele>
        <time>2026-08-08T08:34:03.091Z</time>
      </trkpt>
      <trkpt lat="44.88538" lon="5.96869">
        <ele>891.8</ele>
        <time>2026-08-08T08:34:04.405Z</time>
      </trkpt>
      <trkpt lat="44.88485" lon="5.96906">
        <ele>896.2</ele>
        <time>2026-08-08T08:34:21.264Z</time>
      </trkpt>
      <trkpt lat="44.88465" lon="5.96921">
        <ele>897.9</ele>
        <time>2026-08-08T08:34:27.785Z</time>
      </trkpt>
      <trkpt lat="44.88456" lon="5.96935">
        <ele>898.3</ele>
        <time>2026-08-08T08:34:30.005Z</time>
      </trkpt>
      <trkpt lat="44.8845" lon="5.96944">
        <ele>898.3</ele>
        <time>2026-08-08T08:34:30.988Z</time>
      </trkpt>
      <trkpt lat="44.88446" lon="5.96953">
        <ele>898.5</ele>
        <time>2026-08-08T08:34:32.178Z</time>
      </trkpt>
      <trkpt lat="44.88444" lon="5.96961">
        <ele>898.5</ele>
        <time>2026-08-08T08:34:32.947Z</time>
      </trkpt>
      <trkpt lat="44.88442" lon="5.96973">
        <ele>898.4</ele>
        <time>2026-08-08T08:34:33.834Z</time>
      </trkpt>
      <trkpt lat="44.88435" lon="5.97071">
        <ele>902.6</ele>
        <time>2026-08-08T08:34:50.273Z</time>
      </trkpt>
      <trkpt lat="44.88433" lon="5.97171">
        <ele>905.5</ele>
        <time>2026-08-08T08:35:03.312Z</time>
      </trkpt>
      <trkpt lat="44.88432" lon="5.97193">
        <ele>905.5</ele>
        <time>2026-08-08T08:35:05.163Z</time>
      </trkpt>
      <trkpt lat="44.88426" lon="5.97244">
        <ele>906.8</ele>
        <time>2026-08-08T08:35:11.476Z</time>
      </trkpt>
      <trkpt lat="44.88407" lon="5.97299">
        <ele>910.5</ele>
        <time>2026-08-08T08:35:25.812Z</time>
      </trkpt>
      <trkpt lat="44.88407" lon="5.97337">
        <ele>910.5</ele>
        <time>2026-08-08T08:35:28.943Z</time>
      </trkpt>
      <trkpt lat="44.88413" lon="5.97398">
        <ele>909.8</ele>
        <time>2026-08-08T08:35:33.437Z</time>
      </trkpt>
      <trkpt lat="44.88413" lon="5.97402">
        <ele>909.7</ele>
        <time>2026-08-08T08:35:33.682Z</time>
      </trkpt>
      <trkpt lat="44.88422" lon="5.97462">
        <ele>907.6</ele>
        <time>2026-08-08T08:35:37.122Z</time>
      </trkpt>
      <trkpt lat="44.88422" lon="5.97471">
        <ele>907.3</ele>
        <time>2026-08-08T08:35:37.673Z</time>
      </trkpt>
      <trkpt lat="44.8842" lon="5.9749">
        <ele>906.1</ele>
        <time>2026-08-08T08:35:38.633Z</time>
      </trkpt>
      <trkpt lat="44.88415" lon="5.97503">
        <ele>905.6</ele>
        <time>2026-08-08T08:35:39.433Z</time>
      </trkpt>
      <trkpt lat="44.88361" lon="5.97612">
        <ele>902.9</ele>
        <time>2026-08-08T08:35:48.147Z</time>
      </trkpt>
      <trkpt lat="44.88337" lon="5.97663">
        <ele>903.8</ele>
        <time>2026-08-08T08:35:54.527Z</time>
      </trkpt>
      <trkpt lat="44.88324" lon="5.97688">
        <ele>903.6</ele>
        <time>2026-08-08T08:35:56.888Z</time>
      </trkpt>
      <trkpt lat="44.88317" lon="5.97698">
        <ele>903.6</ele>
        <time>2026-08-08T08:35:58.022Z</time>
      </trkpt>
      <trkpt lat="44.88307" lon="5.97708">
        <ele>903.9</ele>
        <time>2026-08-08T08:35:59.908Z</time>
      </trkpt>
      <trkpt lat="44.88284" lon="5.97721">
        <ele>905.5</ele>
        <time>2026-08-08T08:36:06.089Z</time>
      </trkpt>
      <trkpt lat="44.88264" lon="5.97736">
        <ele>906.5</ele>
        <time>2026-08-08T08:36:10.408Z</time>
      </trkpt>
      <trkpt lat="44.88247" lon="5.9776">
        <ele>906.7</ele>
        <time>2026-08-08T08:36:13.528Z</time>
      </trkpt>
      <trkpt lat="44.88171" lon="5.97884">
        <ele>910.2</ele>
        <time>2026-08-08T08:36:32.364Z</time>
      </trkpt>
      <trkpt lat="44.88162" lon="5.97905">
        <ele>909.4</ele>
        <time>2026-08-08T08:36:33.725Z</time>
      </trkpt>
      <trkpt lat="44.8816" lon="5.97918">
        <ele>908.7</ele>
        <time>2026-08-08T08:36:34.409Z</time>
      </trkpt>
      <trkpt lat="44.88159" lon="5.97931">
        <ele>908.5</ele>
        <time>2026-08-08T08:36:35.340Z</time>
      </trkpt>
      <trkpt lat="44.8816" lon="5.97947">
        <ele>908.3</ele>
        <time>2026-08-08T08:36:36.444Z</time>
      </trkpt>
      <trkpt lat="44.88162" lon="5.97954">
        <ele>908.4</ele>
        <time>2026-08-08T08:36:37.188Z</time>
      </trkpt>
      <trkpt lat="44.88163" lon="5.97957">
        <ele>908.5</ele>
        <time>2026-08-08T08:36:37.647Z</time>
      </trkpt>
      <trkpt lat="44.88178" lon="5.97995">
        <ele>911.4</ele>
        <time>2026-08-08T08:36:49.072Z</time>
      </trkpt>
      <trkpt lat="44.88186" lon="5.98039">
        <ele>914.1</ele>
        <time>2026-08-08T08:36:59.523Z</time>
      </trkpt>
      <trkpt lat="44.88187" lon="5.98101">
        <ele>916.5</ele>
        <time>2026-08-08T08:37:09.154Z</time>
      </trkpt>
      <trkpt lat="44.88129" lon="5.9841">
        <ele>920</ele>
        <time>2026-08-08T08:37:40.364Z</time>
      </trkpt>
      <trkpt lat="44.8811" lon="5.9851">
        <ele>916.8</ele>
        <time>2026-08-08T08:37:46.437Z</time>
      </trkpt>
      <trkpt lat="44.8811" lon="5.98581">
        <ele>917.9</ele>
        <time>2026-08-08T08:37:53.868Z</time>
      </trkpt>
      <trkpt lat="44.88109" lon="5.98919">
        <ele>920.5</ele>
        <time>2026-08-08T08:38:25.360Z</time>
      </trkpt>
      <trkpt lat="44.88127" lon="5.99229">
        <ele>928.4</ele>
        <time>2026-08-08T08:39:03.494Z</time>
      </trkpt>
      <trkpt lat="44.88145" lon="5.99291">
        <ele>931.1</ele>
        <time>2026-08-08T08:39:14.198Z</time>
      </trkpt>
      <trkpt lat="44.8816" lon="5.99325">
        <ele>932.5</ele>
        <time>2026-08-08T08:39:20.022Z</time>
      </trkpt>
      <trkpt lat="44.88173" lon="5.99359">
        <ele>934.2</ele>
        <time>2026-08-08T08:39:26.620Z</time>
      </trkpt>
      <trkpt lat="44.88183" lon="5.99403">
        <ele>936.6</ele>
        <time>2026-08-08T08:39:35.816Z</time>
      </trkpt>
      <trkpt lat="44.88195" lon="5.99524">
        <ele>937.2</ele>
        <time>2026-08-08T08:39:46.825Z</time>
      </trkpt>
      <trkpt lat="44.88203" lon="5.99619">
        <ele>940.2</ele>
        <time>2026-08-08T08:39:59.775Z</time>
      </trkpt>
      <trkpt lat="44.88205" lon="5.99649">
        <ele>940.8</ele>
        <time>2026-08-08T08:40:03.192Z</time>
      </trkpt>
      <trkpt lat="44.88206" lon="5.99657">
        <ele>940.9</ele>
        <time>2026-08-08T08:40:03.956Z</time>
      </trkpt>
      <trkpt lat="44.8821" lon="5.99701">
        <ele>941.5</ele>
        <time>2026-08-08T08:40:08.512Z</time>
      </trkpt>
      <trkpt lat="44.88206" lon="5.99717">
        <ele>940.8</ele>
        <time>2026-08-08T08:40:09.415Z</time>
      </trkpt>
      <trkpt lat="44.88199" lon="5.99746">
        <ele>940.8</ele>
        <time>2026-08-08T08:40:11.999Z</time>
      </trkpt>
      <trkpt lat="44.88158" lon="5.99866">
        <ele>942.3</ele>
        <time>2026-08-08T08:40:24.999Z</time>
      </trkpt>
      <trkpt lat="44.88142" lon="5.99921">
        <ele>941.9</ele>
        <time>2026-08-08T08:40:29.566Z</time>
      </trkpt>
      <trkpt lat="44.88136" lon="5.99946">
        <ele>942.5</ele>
        <time>2026-08-08T08:40:32.710Z</time>
      </trkpt>
      <trkpt lat="44.88133" lon="5.99975">
        <ele>944</ele>
        <time>2026-08-08T08:40:38.457Z</time>
      </trkpt>
      <trkpt lat="44.88135" lon="6.00146">
        <ele>949</ele>
        <time>2026-08-08T08:41:00.848Z</time>
      </trkpt>
      <trkpt lat="44.88137" lon="6.00168">
        <ele>949.4</ele>
        <time>2026-08-08T08:41:03.262Z</time>
      </trkpt>
      <trkpt lat="44.88142" lon="6.00189">
        <ele>949.8</ele>
        <time>2026-08-08T08:41:05.697Z</time>
      </trkpt>
      <trkpt lat="44.88153" lon="6.00217">
        <ele>950.8</ele>
        <time>2026-08-08T08:41:10.008Z</time>
      </trkpt>
      <trkpt lat="44.88173" lon="6.00253">
        <ele>951.7</ele>
        <time>2026-08-08T08:41:15.162Z</time>
      </trkpt>
      <trkpt lat="44.88181" lon="6.00272">
        <ele>951.3</ele>
        <time>2026-08-08T08:41:16.670Z</time>
      </trkpt>
      <trkpt lat="44.88188" lon="6.00286">
        <ele>951.2</ele>
        <time>2026-08-08T08:41:17.969Z</time>
      </trkpt>
      <trkpt lat="44.88201" lon="6.00314">
        <ele>951.6</ele>
        <time>2026-08-08T08:41:21.287Z</time>
      </trkpt>
      <trkpt lat="44.88208" lon="6.00325">
        <ele>952</ele>
        <time>2026-08-08T08:41:23.156Z</time>
      </trkpt>
      <trkpt lat="44.88216" lon="6.00336">
        <ele>952.6</ele>
        <time>2026-08-08T08:41:25.576Z</time>
      </trkpt>
      <trkpt lat="44.8823" lon="6.00351">
        <ele>953.9</ele>
        <time>2026-08-08T08:41:30.557Z</time>
      </trkpt>
      <trkpt lat="44.8824" lon="6.00365">
        <ele>955</ele>
        <time>2026-08-08T08:41:34.788Z</time>
      </trkpt>
      <trkpt lat="44.88249" lon="6.00383">
        <ele>955.4</ele>
        <time>2026-08-08T08:41:37.223Z</time>
      </trkpt>
      <trkpt lat="44.88254" lon="6.00396">
        <ele>955.9</ele>
        <time>2026-08-08T08:41:39.320Z</time>
      </trkpt>
      <trkpt lat="44.88257" lon="6.00409">
        <ele>956.3</ele>
        <time>2026-08-08T08:41:41.120Z</time>
      </trkpt>
      <trkpt lat="44.88259" lon="6.00425">
        <ele>956.3</ele>
        <time>2026-08-08T08:41:42.446Z</time>
      </trkpt>
      <trkpt lat="44.8826" lon="6.00439">
        <ele>955.8</ele>
        <time>2026-08-08T08:41:43.235Z</time>
      </trkpt>
      <trkpt lat="44.88258" lon="6.00474">
        <ele>954.8</ele>
        <time>2026-08-08T08:41:45.357Z</time>
      </trkpt>
      <trkpt lat="44.88253" lon="6.00539">
        <ele>954.3</ele>
        <time>2026-08-08T08:41:50.288Z</time>
      </trkpt>
      <trkpt lat="44.88246" lon="6.00619">
        <ele>958.9</ele>
        <time>2026-08-08T08:42:07.987Z</time>
      </trkpt>
      <trkpt lat="44.88244" lon="6.0063">
        <ele>960</ele>
        <time>2026-08-08T08:42:12.051Z</time>
      </trkpt>
      <trkpt lat="44.88241" lon="6.00647">
        <ele>961.2</ele>
        <time>2026-08-08T08:42:16.806Z</time>
      </trkpt>
      <trkpt lat="44.88237" lon="6.00659">
        <ele>961.3</ele>
        <time>2026-08-08T08:42:18.044Z</time>
      </trkpt>
      <trkpt lat="44.88228" lon="6.00679">
        <ele>961.3</ele>
        <time>2026-08-08T08:42:20.062Z</time>
      </trkpt>
      <trkpt lat="44.8822" lon="6.00694">
        <ele>961.6</ele>
        <time>2026-08-08T08:42:21.990Z</time>
      </trkpt>
      <trkpt lat="44.88214" lon="6.00702">
        <ele>962</ele>
        <time>2026-08-08T08:42:23.662Z</time>
      </trkpt>
      <trkpt lat="44.88206" lon="6.0071">
        <ele>962.5</ele>
        <time>2026-08-08T08:42:25.703Z</time>
      </trkpt>
      <trkpt lat="44.88197" lon="6.00716">
        <ele>963.1</ele>
        <time>2026-08-08T08:42:28.040Z</time>
      </trkpt>
      <trkpt lat="44.88172" lon="6.00734">
        <ele>963.2</ele>
        <time>2026-08-08T08:42:31.566Z</time>
      </trkpt>
      <trkpt lat="44.88163" lon="6.00742">
        <ele>963.5</ele>
        <time>2026-08-08T08:42:33.177Z</time>
      </trkpt>
      <trkpt lat="44.88154" lon="6.00752">
        <ele>963.9</ele>
        <time>2026-08-08T08:42:35.180Z</time>
      </trkpt>
      <trkpt lat="44.88143" lon="6.00765">
        <ele>964.1</ele>
        <time>2026-08-08T08:42:37.149Z</time>
      </trkpt>
      <trkpt lat="44.88116" lon="6.00803">
        <ele>963.7</ele>
        <time>2026-08-08T08:42:41.207Z</time>
      </trkpt>
      <trkpt lat="44.88105" lon="6.00822">
        <ele>963.7</ele>
        <time>2026-08-08T08:42:43.221Z</time>
      </trkpt>
      <trkpt lat="44.88084" lon="6.00863">
        <ele>964.3</ele>
        <time>2026-08-08T08:42:48.218Z</time>
      </trkpt>
      <trkpt lat="44.88069" lon="6.00899">
        <ele>964.6</ele>
        <time>2026-08-08T08:42:52.131Z</time>
      </trkpt>
      <trkpt lat="44.88061" lon="6.00922">
        <ele>965</ele>
        <time>2026-08-08T08:42:54.865Z</time>
      </trkpt>
      <trkpt lat="44.88058" lon="6.0094">
        <ele>965.2</ele>
        <time>2026-08-08T08:42:56.631Z</time>
      </trkpt>
      <trkpt lat="44.88057" lon="6.00957">
        <ele>965.3</ele>
        <time>2026-08-08T08:42:58.145Z</time>
      </trkpt>
      <trkpt lat="44.88058" lon="6.00987">
        <ele>965.6</ele>
        <time>2026-08-08T08:43:01.048Z</time>
      </trkpt>
      <trkpt lat="44.88062" lon="6.01033">
        <ele>965.4</ele>
        <time>2026-08-08T08:43:04.718Z</time>
      </trkpt>
      <trkpt lat="44.88064" lon="6.01062">
        <ele>964.9</ele>
        <time>2026-08-08T08:43:06.706Z</time>
      </trkpt>
      <trkpt lat="44.88068" lon="6.01118">
        <ele>965.2</ele>
        <time>2026-08-08T08:43:11.816Z</time>
      </trkpt>
      <trkpt lat="44.88071" lon="6.01139">
        <ele>965.8</ele>
        <time>2026-08-08T08:43:14.494Z</time>
      </trkpt>
      <trkpt lat="44.88083" lon="6.0119">
        <ele>967.1</ele>
        <time>2026-08-08T08:43:20.963Z</time>
      </trkpt>
      <trkpt lat="44.88084" lon="6.01195">
        <ele>967.2</ele>
        <time>2026-08-08T08:43:21.579Z</time>
      </trkpt>
      <trkpt lat="44.8809" lon="6.01216">
        <ele>967.5</ele>
        <time>2026-08-08T08:43:23.891Z</time>
      </trkpt>
      <trkpt lat="44.88098" lon="6.01233">
        <ele>968.1</ele>
        <time>2026-08-08T08:43:26.534Z</time>
      </trkpt>
      <trkpt lat="44.8813" lon="6.01295">
        <ele>969.4</ele>
        <time>2026-08-08T08:43:34.744Z</time>
      </trkpt>
      <trkpt lat="44.88141" lon="6.01317">
        <ele>969.9</ele>
        <time>2026-08-08T08:43:37.708Z</time>
      </trkpt>
      <trkpt lat="44.88152" lon="6.01345">
        <ele>970.9</ele>
        <time>2026-08-08T08:43:42.051Z</time>
      </trkpt>
      <trkpt lat="44.8818" lon="6.01415">
        <ele>972</ele>
        <time>2026-08-08T08:43:50.246Z</time>
      </trkpt>
      <trkpt lat="44.88187" lon="6.01436">
        <ele>972.3</ele>
        <time>2026-08-08T08:43:52.604Z</time>
      </trkpt>
      <trkpt lat="44.88191" lon="6.01454">
        <ele>972.8</ele>
        <time>2026-08-08T08:43:54.967Z</time>
      </trkpt>
      <trkpt lat="44.88193" lon="6.01471">
        <ele>973.6</ele>
        <time>2026-08-08T08:43:58.050Z</time>
      </trkpt>
      <trkpt lat="44.88192" lon="6.01486">
        <ele>973.6</ele>
        <time>2026-08-08T08:43:59.282Z</time>
      </trkpt>
      <trkpt lat="44.88188" lon="6.0152">
        <ele>973.6</ele>
        <time>2026-08-08T08:44:02.192Z</time>
      </trkpt>
      <trkpt lat="44.88184" lon="6.01535">
        <ele>973.1</ele>
        <time>2026-08-08T08:44:03.091Z</time>
      </trkpt>
      <trkpt lat="44.88181" lon="6.01542">
        <ele>972.5</ele>
        <time>2026-08-08T08:44:03.514Z</time>
      </trkpt>
      <trkpt lat="44.88181" lon="6.01546">
        <ele>972.6</ele>
        <time>2026-08-08T08:44:03.990Z</time>
      </trkpt>
      <trkpt lat="44.88184" lon="6.01555">
        <ele>973.2</ele>
        <time>2026-08-08T08:44:06.302Z</time>
      </trkpt>
      <trkpt lat="44.88188" lon="6.01551">
        <ele>973.9</ele>
        <time>2026-08-08T08:44:08.764Z</time>
      </trkpt>
      <trkpt lat="44.88192" lon="6.01548">
        <ele>974.6</ele>
        <time>2026-08-08T08:44:10.907Z</time>
      </trkpt>
      <trkpt lat="44.88194" lon="6.01539">
        <ele>975</ele>
        <time>2026-08-08T08:44:12.481Z</time>
      </trkpt>
      <trkpt lat="44.88196" lon="6.01528">
        <ele>975.5</ele>
        <time>2026-08-08T08:44:14.418Z</time>
      </trkpt>
      <trkpt lat="44.88203" lon="6.01504">
        <ele>977.2</ele>
        <time>2026-08-08T08:44:21.092Z</time>
      </trkpt>
      <trkpt lat="44.88218" lon="6.01474">
        <ele>981.7</ele>
        <time>2026-08-08T08:44:34.412Z</time>
      </trkpt>
      <trkpt lat="44.88224" lon="6.01455">
        <ele>983</ele>
        <time>2026-08-08T08:44:39.505Z</time>
      </trkpt>
      <trkpt lat="44.88225" lon="6.01448">
        <ele>983.7</ele>
        <time>2026-08-08T08:44:42.291Z</time>
      </trkpt>
      <trkpt lat="44.88234" lon="6.01413">
        <ele>987.4</ele>
        <time>2026-08-08T08:44:55.583Z</time>
      </trkpt>
      <trkpt lat="44.8825" lon="6.01354">
        <ele>991.6</ele>
        <time>2026-08-08T08:45:12.175Z</time>
      </trkpt>
      <trkpt lat="44.88253" lon="6.01341">
        <ele>993</ele>
        <time>2026-08-08T08:45:17.384Z</time>
      </trkpt>
      <trkpt lat="44.88256" lon="6.01323">
        <ele>994.8</ele>
        <time>2026-08-08T08:45:23.717Z</time>
      </trkpt>
      <trkpt lat="44.88258" lon="6.01302">
        <ele>997</ele>
        <time>2026-08-08T08:45:31.443Z</time>
      </trkpt>
      <trkpt lat="44.88262" lon="6.01248">
        <ele>1003.7</ele>
        <time>2026-08-08T08:45:51.071Z</time>
      </trkpt>
      <trkpt lat="44.88266" lon="6.01215">
        <ele>1007.1</ele>
        <time>2026-08-08T08:46:02.811Z</time>
      </trkpt>
      <trkpt lat="44.88265" lon="6.01194">
        <ele>1008</ele>
        <time>2026-08-08T08:46:06.337Z</time>
      </trkpt>
      <trkpt lat="44.88262" lon="6.01179">
        <ele>1007.7</ele>
        <time>2026-08-08T08:46:07.384Z</time>
      </trkpt>
      <trkpt lat="44.88257" lon="6.01162">
        <ele>1006.7</ele>
        <time>2026-08-08T08:46:08.332Z</time>
      </trkpt>
      <trkpt lat="44.88254" lon="6.01152">
        <ele>1006.3</ele>
        <time>2026-08-08T08:46:08.877Z</time>
      </trkpt>
      <trkpt lat="44.88253" lon="6.01145">
        <ele>1006.6</ele>
        <time>2026-08-08T08:46:10.065Z</time>
      </trkpt>
      <trkpt lat="44.88255" lon="6.01137">
        <ele>1007.8</ele>
        <time>2026-08-08T08:46:12.940Z</time>
      </trkpt>
      <trkpt lat="44.88259" lon="6.01135">
        <ele>1009.2</ele>
        <time>2026-08-08T08:46:15.217Z</time>
      </trkpt>
      <trkpt lat="44.88264" lon="6.01135">
        <ele>1010.7</ele>
        <time>2026-08-08T08:46:17.496Z</time>
      </trkpt>
      <trkpt lat="44.88267" lon="6.01137">
        <ele>1011.7</ele>
        <time>2026-08-08T08:46:19.516Z</time>
      </trkpt>
      <trkpt lat="44.88272" lon="6.01144">
        <ele>1012.9</ele>
        <time>2026-08-08T08:46:23.072Z</time>
      </trkpt>
      <trkpt lat="44.88283" lon="6.01168">
        <ele>1016.7</ele>
        <time>2026-08-08T08:46:33.273Z</time>
      </trkpt>
      <trkpt lat="44.88286" lon="6.01179">
        <ele>1018.2</ele>
        <time>2026-08-08T08:46:37.374Z</time>
      </trkpt>
      <trkpt lat="44.88288" lon="6.01191">
        <ele>1018.7</ele>
        <time>2026-08-08T08:46:39.334Z</time>
      </trkpt>
      <trkpt lat="44.8829" lon="6.01216">
        <ele>1019</ele>
        <time>2026-08-08T08:46:41.862Z</time>
      </trkpt>
      <trkpt lat="44.88292" lon="6.0123">
        <ele>1019.6</ele>
        <time>2026-08-08T08:46:44.223Z</time>
      </trkpt>
      <trkpt lat="44.88295" lon="6.01244">
        <ele>1020.8</ele>
        <time>2026-08-08T08:46:49.080Z</time>
      </trkpt>
      <trkpt lat="44.88303" lon="6.01262">
        <ele>1023.7</ele>
        <time>2026-08-08T08:46:56.418Z</time>
      </trkpt>
      <trkpt lat="44.88306" lon="6.01273">
        <ele>1024.4</ele>
        <time>2026-08-08T08:46:59.142Z</time>
      </trkpt>
      <trkpt lat="44.88306" lon="6.01291">
        <ele>1024.4</ele>
        <time>2026-08-08T08:47:00.650Z</time>
      </trkpt>
      <trkpt lat="44.88304" lon="6.01331">
        <ele>1024.6</ele>
        <time>2026-08-08T08:47:04.280Z</time>
      </trkpt>
      <trkpt lat="44.88303" lon="6.01353">
        <ele>1025.4</ele>
        <time>2026-08-08T08:47:07.531Z</time>
      </trkpt>
      <trkpt lat="44.88302" lon="6.01364">
        <ele>1025.5</ele>
        <time>2026-08-08T08:47:08.640Z</time>
      </trkpt>
      <trkpt lat="44.88304" lon="6.01384">
        <ele>1028</ele>
        <time>2026-08-08T08:47:15.883Z</time>
      </trkpt>
      <trkpt lat="44.88307" lon="6.014">
        <ele>1030.6</ele>
        <time>2026-08-08T08:47:21.680Z</time>
      </trkpt>
      <trkpt lat="44.88306" lon="6.0141">
        <ele>1031.1</ele>
        <time>2026-08-08T08:47:23.602Z</time>
      </trkpt>
      <trkpt lat="44.88304" lon="6.01432">
        <ele>1030.9</ele>
        <time>2026-08-08T08:47:25.199Z</time>
      </trkpt>
      <trkpt lat="44.88302" lon="6.01446">
        <ele>1030.7</ele>
        <time>2026-08-08T08:47:26.267Z</time>
      </trkpt>
      <trkpt lat="44.88302" lon="6.0146">
        <ele>1030.5</ele>
        <time>2026-08-08T08:47:27.174Z</time>
      </trkpt>
      <trkpt lat="44.88304" lon="6.01478">
        <ele>1031.9</ele>
        <time>2026-08-08T08:47:32.821Z</time>
      </trkpt>
      <trkpt lat="44.88308" lon="6.01504">
        <ele>1035.1</ele>
        <time>2026-08-08T08:47:42.483Z</time>
      </trkpt>
      <trkpt lat="44.88309" lon="6.01511">
        <ele>1035.9</ele>
        <time>2026-08-08T08:47:45.156Z</time>
      </trkpt>
      <trkpt lat="44.88323" lon="6.01572">
        <ele>1041.7</ele>
        <time>2026-08-08T08:48:07.797Z</time>
      </trkpt>
      <trkpt lat="44.88333" lon="6.01623">
        <ele>1041.5</ele>
        <time>2026-08-08T08:48:12.020Z</time>
      </trkpt>
      <trkpt lat="44.88334" lon="6.01624">
        <ele>1041.5</ele>
        <time>2026-08-08T08:48:12.172Z</time>
      </trkpt>
      <trkpt lat="44.8834" lon="6.01641">
        <ele>1041</ele>
        <time>2026-08-08T08:48:13.313Z</time>
      </trkpt>
      <trkpt lat="44.88345" lon="6.0165">
        <ele>1041.9</ele>
        <time>2026-08-08T08:48:16.954Z</time>
      </trkpt>
      <trkpt lat="44.88351" lon="6.01663">
        <ele>1042.8</ele>
        <time>2026-08-08T08:48:20.426Z</time>
      </trkpt>
      <trkpt lat="44.88357" lon="6.01675">
        <ele>1042.7</ele>
        <time>2026-08-08T08:48:21.575Z</time>
      </trkpt>
      <trkpt lat="44.88358" lon="6.01679">
        <ele>1042.6</ele>
        <time>2026-08-08T08:48:21.811Z</time>
      </trkpt>
      <trkpt lat="44.88358" lon="6.01679">
        <ele>1042.6</ele>
        <time>2026-08-08T08:48:21.832Z</time>
      </trkpt>
      <trkpt lat="44.88358" lon="6.01679">
        <ele>1042.7</ele>
        <time>2026-08-08T08:48:21.894Z</time>
      </trkpt>
      <trkpt lat="44.8836" lon="6.01684">
        <ele>1042.5</ele>
        <time>2026-08-08T08:48:22.185Z</time>
      </trkpt>
      <trkpt lat="44.88373" lon="6.01698">
        <ele>1045.2</ele>
        <time>2026-08-08T08:48:30.655Z</time>
      </trkpt>
      <trkpt lat="44.88393" lon="6.01717">
        <ele>1049.9</ele>
        <time>2026-08-08T08:48:42.656Z</time>
      </trkpt>
      <trkpt lat="44.88404" lon="6.01731">
        <ele>1050.5</ele>
        <time>2026-08-08T08:48:45.363Z</time>
      </trkpt>
      <trkpt lat="44.88413" lon="6.01748">
        <ele>1049.5</ele>
        <time>2026-08-08T08:48:46.418Z</time>
      </trkpt>
      <trkpt lat="44.88422" lon="6.01765">
        <ele>1047</ele>
        <time>2026-08-08T08:48:47.487Z</time>
      </trkpt>
      <trkpt lat="44.8843" lon="6.01776">
        <ele>1047.5</ele>
        <time>2026-08-08T08:48:49.666Z</time>
      </trkpt>
      <trkpt lat="44.88439" lon="6.01781">
        <ele>1050.5</ele>
        <time>2026-08-08T08:48:54.423Z</time>
      </trkpt>
      <trkpt lat="44.88451" lon="6.01787">
        <ele>1054.4</ele>
        <time>2026-08-08T08:49:00.834Z</time>
      </trkpt>
      <trkpt lat="44.88459" lon="6.01795">
        <ele>1055</ele>
        <time>2026-08-08T08:49:03.167Z</time>
      </trkpt>
      <trkpt lat="44.88469" lon="6.01805">
        <ele>1055.8</ele>
        <time>2026-08-08T08:49:06.262Z</time>
      </trkpt>
      <trkpt lat="44.88499" lon="6.01834">
        <ele>1054.7</ele>
        <time>2026-08-08T08:49:09.559Z</time>
      </trkpt>
      <trkpt lat="44.88521" lon="6.01849">
        <ele>1055.5</ele>
        <time>2026-08-08T08:49:13.658Z</time>
      </trkpt>
      <trkpt lat="44.88545" lon="6.01862">
        <ele>1057.5</ele>
        <time>2026-08-08T08:49:21.336Z</time>
      </trkpt>
      <trkpt lat="44.88564" lon="6.0187">
        <ele>1059.2</ele>
        <time>2026-08-08T08:49:27.903Z</time>
      </trkpt>
      <trkpt lat="44.88586" lon="6.01882">
        <ele>1060.6</ele>
        <time>2026-08-08T08:49:33.371Z</time>
      </trkpt>
      <trkpt lat="44.88612" lon="6.01895">
        <ele>1066.7</ele>
        <time>2026-08-08T08:49:47.589Z</time>
      </trkpt>
      <trkpt lat="44.88629" lon="6.01903">
        <ele>1071.9</ele>
        <time>2026-08-08T08:49:56.531Z</time>
      </trkpt>
      <trkpt lat="44.88646" lon="6.01911">
        <ele>1077.4</ele>
        <time>2026-08-08T08:50:05.425Z</time>
      </trkpt>
      <trkpt lat="44.88658" lon="6.01917">
        <ele>1081.6</ele>
        <time>2026-08-08T08:50:12.115Z</time>
      </trkpt>
      <trkpt lat="44.88667" lon="6.01927">
        <ele>1080.6</ele>
        <time>2026-08-08T08:50:12.898Z</time>
      </trkpt>
      <trkpt lat="44.88699" lon="6.01945">
        <ele>1087</ele>
        <time>2026-08-08T08:50:30.689Z</time>
      </trkpt>
      <trkpt lat="44.88714" lon="6.01951">
        <ele>1088.7</ele>
        <time>2026-08-08T08:50:37.569Z</time>
      </trkpt>
      <trkpt lat="44.88728" lon="6.01963">
        <ele>1087</ele>
        <time>2026-08-08T08:50:38.754Z</time>
      </trkpt>
      <trkpt lat="44.8874" lon="6.01971">
        <ele>1087.2</ele>
        <time>2026-08-08T08:50:40.593Z</time>
      </trkpt>
      <trkpt lat="44.8876" lon="6.01974">
        <ele>1092.5</ele>
        <time>2026-08-08T08:50:50.807Z</time>
      </trkpt>
      <trkpt lat="44.88766" lon="6.01977">
        <ele>1092.8</ele>
        <time>2026-08-08T08:50:52.072Z</time>
      </trkpt>
      <trkpt lat="44.88779" lon="6.01995">
        <ele>1087.3</ele>
        <time>2026-08-08T08:50:53.327Z</time>
      </trkpt>
      <trkpt lat="44.88788" lon="6.02009">
        <ele>1087.2</ele>
        <time>2026-08-08T08:50:54.803Z</time>
      </trkpt>
      <trkpt lat="44.88801" lon="6.02028">
        <ele>1089.4</ele>
        <time>2026-08-08T08:51:03.700Z</time>
      </trkpt>
      <trkpt lat="44.88807" lon="6.0205">
        <ele>1084.3</ele>
        <time>2026-08-08T08:51:04.876Z</time>
      </trkpt>
      <trkpt lat="44.88815" lon="6.02065">
        <ele>1081.5</ele>
        <time>2026-08-08T08:51:05.806Z</time>
      </trkpt>
      <trkpt lat="44.88829" lon="6.02072">
        <ele>1085.8</ele>
        <time>2026-08-08T08:51:13.399Z</time>
      </trkpt>
      <trkpt lat="44.88845" lon="6.02073">
        <ele>1092.5</ele>
        <time>2026-08-08T08:51:21.306Z</time>
      </trkpt>
      <trkpt lat="44.88862" lon="6.02092">
        <ele>1090.7</ele>
        <time>2026-08-08T08:51:22.846Z</time>
      </trkpt>
      <trkpt lat="44.88885" lon="6.02117">
        <ele>1087</ele>
        <time>2026-08-08T08:51:24.915Z</time>
      </trkpt>
      <trkpt lat="44.88899" lon="6.02132">
        <ele>1083.5</ele>
        <time>2026-08-08T08:51:26.184Z</time>
      </trkpt>
      <trkpt lat="44.88909" lon="6.02143">
        <ele>1080.5</ele>
        <time>2026-08-08T08:51:27.061Z</time>
      </trkpt>
      <trkpt lat="44.88922" lon="6.02146">
        <ele>1083.7</ele>
        <time>2026-08-08T08:51:33.800Z</time>
      </trkpt>
      <trkpt lat="44.88933" lon="6.02146">
        <ele>1087.6</ele>
        <time>2026-08-08T08:51:39.320Z</time>
      </trkpt>
      <trkpt lat="44.88945" lon="6.02143">
        <ele>1093.2</ele>
        <time>2026-08-08T08:51:45.212Z</time>
      </trkpt>
      <trkpt lat="44.88957" lon="6.02139">
        <ele>1100.1</ele>
        <time>2026-08-08T08:51:51.727Z</time>
      </trkpt>
      <trkpt lat="44.88965" lon="6.02142">
        <ele>1100.3</ele>
        <time>2026-08-08T08:51:52.949Z</time>
      </trkpt>
      <trkpt lat="44.88982" lon="6.02157">
        <ele>1096.9</ele>
        <time>2026-08-08T08:51:54.371Z</time>
      </trkpt>
      <trkpt lat="44.8902" lon="6.02184">
        <ele>1097.1</ele>
        <time>2026-08-08T08:51:59.647Z</time>
      </trkpt>
      <trkpt lat="44.89037" lon="6.02193">
        <ele>1100.6</ele>
        <time>2026-08-08T08:52:08.579Z</time>
      </trkpt>
      <trkpt lat="44.89047" lon="6.02201">
        <ele>1101.7</ele>
        <time>2026-08-08T08:52:12.885Z</time>
      </trkpt>
      <trkpt lat="44.89053" lon="6.02212">
        <ele>1097.9</ele>
        <time>2026-08-08T08:52:13.566Z</time>
      </trkpt>
      <trkpt lat="44.89064" lon="6.02233">
        <ele>1092</ele>
        <time>2026-08-08T08:52:14.890Z</time>
      </trkpt>
      <trkpt lat="44.89076" lon="6.02247">
        <ele>1091.1</ele>
        <time>2026-08-08T08:52:16.074Z</time>
      </trkpt>
      <trkpt lat="44.89105" lon="6.02282">
        <ele>1082.6</ele>
        <time>2026-08-08T08:52:18.755Z</time>
      </trkpt>
      <trkpt lat="44.89118" lon="6.02292">
        <ele>1080.7</ele>
        <time>2026-08-08T08:52:19.830Z</time>
      </trkpt>
      <trkpt lat="44.89129" lon="6.02298">
        <ele>1079.8</ele>
        <time>2026-08-08T08:52:20.674Z</time>
      </trkpt>
      <trkpt lat="44.8914" lon="6.02302">
        <ele>1080.1</ele>
        <time>2026-08-08T08:52:22.451Z</time>
      </trkpt>
      <trkpt lat="44.89155" lon="6.02303">
        <ele>1083.7</ele>
        <time>2026-08-08T08:52:29.952Z</time>
      </trkpt>
      <trkpt lat="44.89157" lon="6.02303">
        <ele>1084.4</ele>
        <time>2026-08-08T08:52:31.168Z</time>
      </trkpt>
      <trkpt lat="44.89161" lon="6.02304">
        <ele>1085</ele>
        <time>2026-08-08T08:52:33.064Z</time>
      </trkpt>
      <trkpt lat="44.89165" lon="6.02307">
        <ele>1085</ele>
        <time>2026-08-08T08:52:33.591Z</time>
      </trkpt>
      <trkpt lat="44.89167" lon="6.02314">
        <ele>1084.4</ele>
        <time>2026-08-08T08:52:33.953Z</time>
      </trkpt>
      <trkpt lat="44.89172" lon="6.02324">
        <ele>1083.8</ele>
        <time>2026-08-08T08:52:34.578Z</time>
      </trkpt>
      <trkpt lat="44.89179" lon="6.02342">
        <ele>1082.2</ele>
        <time>2026-08-08T08:52:35.597Z</time>
      </trkpt>
      <trkpt lat="44.89188" lon="6.02354">
        <ele>1082.3</ele>
        <time>2026-08-08T08:52:37.142Z</time>
      </trkpt>
      <trkpt lat="44.89198" lon="6.02362">
        <ele>1083.1</ele>
        <time>2026-08-08T08:52:40.214Z</time>
      </trkpt>
      <trkpt lat="44.89208" lon="6.02368">
        <ele>1085.9</ele>
        <time>2026-08-08T08:52:45.588Z</time>
      </trkpt>
      <trkpt lat="44.8922" lon="6.02369">
        <ele>1090.5</ele>
        <time>2026-08-08T08:52:52.082Z</time>
      </trkpt>
      <trkpt lat="44.89233" lon="6.02366">
        <ele>1096</ele>
        <time>2026-08-08T08:52:58.359Z</time>
      </trkpt>
      <trkpt lat="44.89248" lon="6.02362">
        <ele>1102.9</ele>
        <time>2026-08-08T08:53:06.220Z</time>
      </trkpt>
      <trkpt lat="44.89262" lon="6.02364">
        <ele>1106.4</ele>
        <time>2026-08-08T08:53:13.483Z</time>
      </trkpt>
      <trkpt lat="44.89274" lon="6.02368">
        <ele>1107.9</ele>
        <time>2026-08-08T08:53:19.497Z</time>
      </trkpt>
      <trkpt lat="44.89292" lon="6.02379">
        <ele>1107.5</ele>
        <time>2026-08-08T08:53:21.461Z</time>
      </trkpt>
      <trkpt lat="44.89305" lon="6.02385">
        <ele>1107.9</ele>
        <time>2026-08-08T08:53:23.645Z</time>
      </trkpt>
      <trkpt lat="44.89322" lon="6.02393">
        <ele>1109.2</ele>
        <time>2026-08-08T08:53:28.627Z</time>
      </trkpt>
      <trkpt lat="44.89335" lon="6.02402">
        <ele>1109.4</ele>
        <time>2026-08-08T08:53:30.622Z</time>
      </trkpt>
      <trkpt lat="44.89346" lon="6.02413">
        <ele>1109</ele>
        <time>2026-08-08T08:53:31.855Z</time>
      </trkpt>
      <trkpt lat="44.89354" lon="6.02428">
        <ele>1107</ele>
        <time>2026-08-08T08:53:32.828Z</time>
      </trkpt>
      <trkpt lat="44.89365" lon="6.0245">
        <ele>1103.9</ele>
        <time>2026-08-08T08:53:34.139Z</time>
      </trkpt>
      <trkpt lat="44.89377" lon="6.02469">
        <ele>1101.9</ele>
        <time>2026-08-08T08:53:35.419Z</time>
      </trkpt>
      <trkpt lat="44.89386" lon="6.02475">
        <ele>1102.3</ele>
        <time>2026-08-08T08:53:37.210Z</time>
      </trkpt>
      <trkpt lat="44.89395" lon="6.02479">
        <ele>1103.5</ele>
        <time>2026-08-08T08:53:41.954Z</time>
      </trkpt>
      <trkpt lat="44.89407" lon="6.02478">
        <ele>1105.5</ele>
        <time>2026-08-08T08:53:47.930Z</time>
      </trkpt>
      <trkpt lat="44.89419" lon="6.02475">
        <ele>1108</ele>
        <time>2026-08-08T08:53:54.116Z</time>
      </trkpt>
      <trkpt lat="44.89431" lon="6.02476">
        <ele>1110</ele>
        <time>2026-08-08T08:54:00.357Z</time>
      </trkpt>
      <trkpt lat="44.89443" lon="6.02482">
        <ele>1110.8</ele>
        <time>2026-08-08T08:54:03.472Z</time>
      </trkpt>
      <trkpt lat="44.89454" lon="6.02486">
        <ele>1111.5</ele>
        <time>2026-08-08T08:54:06.202Z</time>
      </trkpt>
      <trkpt lat="44.89467" lon="6.02485">
        <ele>1113.9</ele>
        <time>2026-08-08T08:54:12.549Z</time>
      </trkpt>
      <trkpt lat="44.89468" lon="6.02484">
        <ele>1114.4</ele>
        <time>2026-08-08T08:54:13.457Z</time>
      </trkpt>
      <trkpt lat="44.89479" lon="6.0248">
        <ele>1117.3</ele>
        <time>2026-08-08T08:54:19.062Z</time>
      </trkpt>
      <trkpt lat="44.89483" lon="6.02478">
        <ele>1118.5</ele>
        <time>2026-08-08T08:54:21.236Z</time>
      </trkpt>
      <trkpt lat="44.89488" lon="6.02475">
        <ele>1120.2</ele>
        <time>2026-08-08T08:54:23.994Z</time>
      </trkpt>
      <trkpt lat="44.895" lon="6.02467">
        <ele>1125.2</ele>
        <time>2026-08-08T08:54:30.409Z</time>
      </trkpt>
      <trkpt lat="44.89513" lon="6.02465">
        <ele>1129.9</ele>
        <time>2026-08-08T08:54:37.027Z</time>
      </trkpt>
      <trkpt lat="44.89527" lon="6.02467">
        <ele>1133.3</ele>
        <time>2026-08-08T08:54:44.357Z</time>
      </trkpt>
      <trkpt lat="44.89557" lon="6.02489">
        <ele>1135.7</ele>
        <time>2026-08-08T08:54:53.556Z</time>
      </trkpt>
      <trkpt lat="44.89575" lon="6.02504">
        <ele>1136.8</ele>
        <time>2026-08-08T08:54:58.044Z</time>
      </trkpt>
      <trkpt lat="44.89597" lon="6.02521">
        <ele>1138.3</ele>
        <time>2026-08-08T08:55:03.894Z</time>
      </trkpt>
      <trkpt lat="44.89611" lon="6.02531">
        <ele>1139.7</ele>
        <time>2026-08-08T08:55:09.380Z</time>
      </trkpt>
      <trkpt lat="44.89623" lon="6.02544">
        <ele>1140.1</ele>
        <time>2026-08-08T08:55:11.769Z</time>
      </trkpt>
      <trkpt lat="44.89634" lon="6.0256">
        <ele>1137.9</ele>
        <time>2026-08-08T08:55:12.882Z</time>
      </trkpt>
      <trkpt lat="44.89644" lon="6.02571">
        <ele>1137.6</ele>
        <time>2026-08-08T08:55:14.098Z</time>
      </trkpt>
      <trkpt lat="44.89653" lon="6.02575">
        <ele>1139.2</ele>
        <time>2026-08-08T08:55:18.844Z</time>
      </trkpt>
      <trkpt lat="44.89664" lon="6.02579">
        <ele>1140.6</ele>
        <time>2026-08-08T08:55:24.477Z</time>
      </trkpt>
      <trkpt lat="44.89671" lon="6.02587">
        <ele>1139.9</ele>
        <time>2026-08-08T08:55:25.152Z</time>
      </trkpt>
      <trkpt lat="44.89676" lon="6.02604">
        <ele>1137.1</ele>
        <time>2026-08-08T08:55:26.066Z</time>
      </trkpt>
      <trkpt lat="44.89679" lon="6.02622">
        <ele>1136.3</ele>
        <time>2026-08-08T08:55:27.006Z</time>
      </trkpt>
      <trkpt lat="44.89684" lon="6.02642">
        <ele>1137.1</ele>
        <time>2026-08-08T08:55:30.209Z</time>
      </trkpt>
      <trkpt lat="44.89715" lon="6.02696">
        <ele>1141</ele>
        <time>2026-08-08T08:55:45.191Z</time>
      </trkpt>
      <trkpt lat="44.8975" lon="6.02744">
        <ele>1142.6</ele>
        <time>2026-08-08T08:55:53.366Z</time>
      </trkpt>
      <trkpt lat="44.89768" lon="6.02791">
        <ele>1145.3</ele>
        <time>2026-08-08T08:56:03.713Z</time>
      </trkpt>
      <trkpt lat="44.89779" lon="6.02822">
        <ele>1146.7</ele>
        <time>2026-08-08T08:56:09.288Z</time>
      </trkpt>
      <trkpt lat="44.89783" lon="6.02832">
        <ele>1147.3</ele>
        <time>2026-08-08T08:56:11.593Z</time>
      </trkpt>
      <trkpt lat="44.89815" lon="6.02873">
        <ele>1148</ele>
        <time>2026-08-08T08:56:17.680Z</time>
      </trkpt>
      <trkpt lat="44.89854" lon="6.0293">
        <ele>1149.8</ele>
        <time>2026-08-08T08:56:26.910Z</time>
      </trkpt>
      <trkpt lat="44.89864" lon="6.02944">
        <ele>1149.8</ele>
        <time>2026-08-08T08:56:28.583Z</time>
      </trkpt>
      <trkpt lat="44.89867" lon="6.02948">
        <ele>1150.4</ele>
        <time>2026-08-08T08:56:30.869Z</time>
      </trkpt>
      <trkpt lat="44.89934" lon="6.03029">
        <ele>1155.3</ele>
        <time>2026-08-08T08:56:50.406Z</time>
      </trkpt>
      <trkpt lat="44.90017" lon="6.03134">
        <ele>1162.2</ele>
        <time>2026-08-08T08:57:17.226Z</time>
      </trkpt>
      <trkpt lat="44.90072" lon="6.03208">
        <ele>1166.3</ele>
        <time>2026-08-08T08:57:33.735Z</time>
      </trkpt>
      <trkpt lat="44.90108" lon="6.0327">
        <ele>1168.4</ele>
        <time>2026-08-08T08:57:43.642Z</time>
      </trkpt>
      <trkpt lat="44.90116" lon="6.03281">
        <ele>1168.6</ele>
        <time>2026-08-08T08:57:45.244Z</time>
      </trkpt>
      <trkpt lat="44.90127" lon="6.03286">
        <ele>1169.5</ele>
        <time>2026-08-08T08:57:48.699Z</time>
      </trkpt>
      <trkpt lat="44.9014" lon="6.03288">
        <ele>1170.3</ele>
        <time>2026-08-08T08:57:51.832Z</time>
      </trkpt>
      <trkpt lat="44.9015" lon="6.0329">
        <ele>1172.1</ele>
        <time>2026-08-08T08:57:56.514Z</time>
      </trkpt>
      <trkpt lat="44.90155" lon="6.03296">
        <ele>1173.1</ele>
        <time>2026-08-08T08:58:00.155Z</time>
      </trkpt>
      <trkpt lat="44.90162" lon="6.03316">
        <ele>1174.3</ele>
        <time>2026-08-08T08:58:04.761Z</time>
      </trkpt>
      <trkpt lat="44.90178" lon="6.03366">
        <ele>1177.7</ele>
        <time>2026-08-08T08:58:17.977Z</time>
      </trkpt>
      <trkpt lat="44.90183" lon="6.03388">
        <ele>1177.9</ele>
        <time>2026-08-08T08:58:20.116Z</time>
      </trkpt>
      <trkpt lat="44.9019" lon="6.03408">
        <ele>1179.2</ele>
        <time>2026-08-08T08:58:25.124Z</time>
      </trkpt>
      <trkpt lat="44.90203" lon="6.03433">
        <ele>1181.7</ele>
        <time>2026-08-08T08:58:35.243Z</time>
      </trkpt>
      <trkpt lat="44.90222" lon="6.03454">
        <ele>1185.4</ele>
        <time>2026-08-08T08:58:47.600Z</time>
      </trkpt>
      <trkpt lat="44.90233" lon="6.03471">
        <ele>1187.7</ele>
        <time>2026-08-08T08:58:55.878Z</time>
      </trkpt>
      <trkpt lat="44.90242" lon="6.03494">
        <ele>1188.6</ele>
        <time>2026-08-08T08:58:59.629Z</time>
      </trkpt>
      <trkpt lat="44.90248" lon="6.03504">
        <ele>1189.4</ele>
        <time>2026-08-08T08:59:02.729Z</time>
      </trkpt>
      <trkpt lat="44.9026" lon="6.03516">
        <ele>1192.2</ele>
        <time>2026-08-08T08:59:10.114Z</time>
      </trkpt>
      <trkpt lat="44.90275" lon="6.03528">
        <ele>1196.2</ele>
        <time>2026-08-08T08:59:18.942Z</time>
      </trkpt>
      <trkpt lat="44.90284" lon="6.03539">
        <ele>1198.2</ele>
        <time>2026-08-08T08:59:24.918Z</time>
      </trkpt>
      <trkpt lat="44.90292" lon="6.03553">
        <ele>1199.3</ele>
        <time>2026-08-08T08:59:29.178Z</time>
      </trkpt>
      <trkpt lat="44.90296" lon="6.03571">
        <ele>1198.8</ele>
        <time>2026-08-08T08:59:30.274Z</time>
      </trkpt>
      <trkpt lat="44.90304" lon="6.03598">
        <ele>1198.5</ele>
        <time>2026-08-08T08:59:32.471Z</time>
      </trkpt>
      <trkpt lat="44.90313" lon="6.03624">
        <ele>1199.9</ele>
        <time>2026-08-08T08:59:37.852Z</time>
      </trkpt>
      <trkpt lat="44.90317" lon="6.03639">
        <ele>1200.2</ele>
        <time>2026-08-08T08:59:39.593Z</time>
      </trkpt>
      <trkpt lat="44.90316" lon="6.03654">
        <ele>1199.2</ele>
        <time>2026-08-08T08:59:40.343Z</time>
      </trkpt>
      <trkpt lat="44.90314" lon="6.03674">
        <ele>1198</ele>
        <time>2026-08-08T08:59:41.337Z</time>
      </trkpt>
      <trkpt lat="44.90315" lon="6.03687">
        <ele>1198.2</ele>
        <time>2026-08-08T08:59:42.729Z</time>
      </trkpt>
      <trkpt lat="44.90323" lon="6.03707">
        <ele>1199.9</ele>
        <time>2026-08-08T08:59:49.567Z</time>
      </trkpt>
      <trkpt lat="44.9033" lon="6.0372">
        <ele>1200.6</ele>
        <time>2026-08-08T08:59:52.288Z</time>
      </trkpt>
      <trkpt lat="44.90336" lon="6.0374">
        <ele>1201.6</ele>
        <time>2026-08-08T08:59:56.146Z</time>
      </trkpt>
      <trkpt lat="44.9034" lon="6.03764">
        <ele>1202.8</ele>
        <time>2026-08-08T09:00:00.757Z</time>
      </trkpt>
      <trkpt lat="44.90344" lon="6.03777">
        <ele>1203.5</ele>
        <time>2026-08-08T09:00:03.439Z</time>
      </trkpt>
      <trkpt lat="44.90351" lon="6.03785">
        <ele>1204.6</ele>
        <time>2026-08-08T09:00:07.888Z</time>
      </trkpt>
      <trkpt lat="44.90363" lon="6.03792">
        <ele>1206.7</ele>
        <time>2026-08-08T09:00:14.659Z</time>
      </trkpt>
      <trkpt lat="44.90373" lon="6.038">
        <ele>1209.4</ele>
        <time>2026-08-08T09:00:20.049Z</time>
      </trkpt>
      <trkpt lat="44.90382" lon="6.03812">
        <ele>1211.4</ele>
        <time>2026-08-08T09:00:26.504Z</time>
      </trkpt>
      <trkpt lat="44.90401" lon="6.03859">
        <ele>1212.6</ele>
        <time>2026-08-08T09:00:32.784Z</time>
      </trkpt>
      <trkpt lat="44.90416" lon="6.03892">
        <ele>1212.6</ele>
        <time>2026-08-08T09:00:36.044Z</time>
      </trkpt>
      <trkpt lat="44.9043" lon="6.03912">
        <ele>1213.5</ele>
        <time>2026-08-08T09:00:39.922Z</time>
      </trkpt>
      <trkpt lat="44.90451" lon="6.03933">
        <ele>1215.6</ele>
        <time>2026-08-08T09:00:48.016Z</time>
      </trkpt>
      <trkpt lat="44.90464" lon="6.03945">
        <ele>1216.5</ele>
        <time>2026-08-08T09:00:51.595Z</time>
      </trkpt>
      <trkpt lat="44.90474" lon="6.03949">
        <ele>1217.8</ele>
        <time>2026-08-08T09:00:56.488Z</time>
      </trkpt>
      <trkpt lat="44.90494" lon="6.03951">
        <ele>1222.2</ele>
        <time>2026-08-08T09:01:06.851Z</time>
      </trkpt>
      <trkpt lat="44.90505" lon="6.03952">
        <ele>1225</ele>
        <time>2026-08-08T09:01:12.245Z</time>
      </trkpt>
      <trkpt lat="44.90516" lon="6.03957">
        <ele>1227.9</ele>
        <time>2026-08-08T09:01:17.927Z</time>
      </trkpt>
      <trkpt lat="44.90521" lon="6.03964">
        <ele>1228.1</ele>
        <time>2026-08-08T09:01:19.081Z</time>
      </trkpt>
      <trkpt lat="44.90526" lon="6.03978">
        <ele>1227.3</ele>
        <time>2026-08-08T09:01:19.861Z</time>
      </trkpt>
      <trkpt lat="44.90533" lon="6.04019">
        <ele>1225.3</ele>
        <time>2026-08-08T09:01:21.971Z</time>
      </trkpt>
      <trkpt lat="44.90541" lon="6.04069">
        <ele>1227.9</ele>
        <time>2026-08-08T09:01:31.938Z</time>
      </trkpt>
      <trkpt lat="44.90551" lon="6.04109">
        <ele>1231.6</ele>
        <time>2026-08-08T09:01:46.661Z</time>
      </trkpt>
      <trkpt lat="44.90551" lon="6.04118">
        <ele>1231.7</ele>
        <time>2026-08-08T09:01:47.592Z</time>
      </trkpt>
      <trkpt lat="44.9055" lon="6.04129">
        <ele>1231.5</ele>
        <time>2026-08-08T09:01:48.292Z</time>
      </trkpt>
      <trkpt lat="44.90548" lon="6.04133">
        <ele>1230.9</ele>
        <time>2026-08-08T09:01:48.542Z</time>
      </trkpt>
      <trkpt lat="44.90539" lon="6.04148">
        <ele>1229.2</ele>
        <time>2026-08-08T09:01:49.535Z</time>
      </trkpt>
      <trkpt lat="44.90529" lon="6.04169">
        <ele>1228.3</ele>
        <time>2026-08-08T09:01:50.946Z</time>
      </trkpt>
      <trkpt lat="44.90524" lon="6.04179">
        <ele>1229.1</ele>
        <time>2026-08-08T09:01:54.108Z</time>
      </trkpt>
      <trkpt lat="44.90523" lon="6.04194">
        <ele>1230.5</ele>
        <time>2026-08-08T09:01:59.506Z</time>
      </trkpt>
      <trkpt lat="44.90523" lon="6.04209">
        <ele>1232.2</ele>
        <time>2026-08-08T09:02:05.008Z</time>
      </trkpt>
      <trkpt lat="44.90527" lon="6.04229">
        <ele>1233.8</ele>
        <time>2026-08-08T09:02:11.466Z</time>
      </trkpt>
      <trkpt lat="44.90532" lon="6.04241">
        <ele>1234.7</ele>
        <time>2026-08-08T09:02:15.002Z</time>
      </trkpt>
      <trkpt lat="44.90537" lon="6.04258">
        <ele>1235.8</ele>
        <time>2026-08-08T09:02:19.284Z</time>
      </trkpt>
      <trkpt lat="44.90531" lon="6.04303">
        <ele>1241</ele>
        <time>2026-08-08T09:02:35.574Z</time>
      </trkpt>
      <trkpt lat="44.90539" lon="6.04346">
        <ele>1243.1</ele>
        <time>2026-08-08T09:02:43.664Z</time>
      </trkpt>
      <trkpt lat="44.90563" lon="6.04411">
        <ele>1242</ele>
        <time>2026-08-08T09:02:48.779Z</time>
      </trkpt>
      <trkpt lat="44.90576" lon="6.04434">
        <ele>1241.6</ele>
        <time>2026-08-08T09:02:50.862Z</time>
      </trkpt>
      <trkpt lat="44.90588" lon="6.04446">
        <ele>1240.9</ele>
        <time>2026-08-08T09:02:52.002Z</time>
      </trkpt>
      <trkpt lat="44.906" lon="6.04459">
        <ele>1240.9</ele>
        <time>2026-08-08T09:02:53.870Z</time>
      </trkpt>
      <trkpt lat="44.90609" lon="6.04473">
        <ele>1241.1</ele>
        <time>2026-08-08T09:02:55.650Z</time>
      </trkpt>
      <trkpt lat="44.90617" lon="6.0449">
        <ele>1241.6</ele>
        <time>2026-08-08T09:02:58.087Z</time>
      </trkpt>
      <trkpt lat="44.90641" lon="6.0456">
        <ele>1246.3</ele>
        <time>2026-08-08T09:03:16.278Z</time>
      </trkpt>
      <trkpt lat="44.90647" lon="6.0458">
        <ele>1247.7</ele>
        <time>2026-08-08T09:03:21.779Z</time>
      </trkpt>
      <trkpt lat="44.9066" lon="6.04641">
        <ele>1250.8</ele>
        <time>2026-08-08T09:03:33.681Z</time>
      </trkpt>
      <trkpt lat="44.90665" lon="6.04661">
        <ele>1251.7</ele>
        <time>2026-08-08T09:03:37.206Z</time>
      </trkpt>
      <trkpt lat="44.90671" lon="6.04679">
        <ele>1252.3</ele>
        <time>2026-08-08T09:03:39.869Z</time>
      </trkpt>
      <trkpt lat="44.90678" lon="6.04693">
        <ele>1252.5</ele>
        <time>2026-08-08T09:03:41.587Z</time>
      </trkpt>
      <trkpt lat="44.90684" lon="6.04704">
        <ele>1252.7</ele>
        <time>2026-08-08T09:03:42.982Z</time>
      </trkpt>
      <trkpt lat="44.90689" lon="6.04717">
        <ele>1253</ele>
        <time>2026-08-08T09:03:44.635Z</time>
      </trkpt>
      <trkpt lat="44.90693" lon="6.0473">
        <ele>1253.6</ele>
        <time>2026-08-08T09:03:47.003Z</time>
      </trkpt>
      <trkpt lat="44.90696" lon="6.04742">
        <ele>1254.4</ele>
        <time>2026-08-08T09:03:50.129Z</time>
      </trkpt>
      <trkpt lat="44.90704" lon="6.04779">
        <ele>1256.7</ele>
        <time>2026-08-08T09:03:59.021Z</time>
      </trkpt>
      <trkpt lat="44.90706" lon="6.04793">
        <ele>1257.1</ele>
        <time>2026-08-08T09:04:00.817Z</time>
      </trkpt>
      <trkpt lat="44.90708" lon="6.04807">
        <ele>1257.6</ele>
        <time>2026-08-08T09:04:02.889Z</time>
      </trkpt>
      <trkpt lat="44.9071" lon="6.04839">
        <ele>1258.7</ele>
        <time>2026-08-08T09:04:07.513Z</time>
      </trkpt>
      <trkpt lat="44.90711" lon="6.04858">
        <ele>1259.3</ele>
        <time>2026-08-08T09:04:10.093Z</time>
      </trkpt>
      <trkpt lat="44.90712" lon="6.04869">
        <ele>1260</ele>
        <time>2026-08-08T09:04:12.814Z</time>
      </trkpt>
      <trkpt lat="44.90712" lon="6.04881">
        <ele>1260.8</ele>
        <time>2026-08-08T09:04:15.994Z</time>
      </trkpt>
      <trkpt lat="44.90711" lon="6.04893">
        <ele>1261.5</ele>
        <time>2026-08-08T09:04:18.701Z</time>
      </trkpt>
      <trkpt lat="44.9071" lon="6.04905">
        <ele>1262</ele>
        <time>2026-08-08T09:04:20.700Z</time>
      </trkpt>
      <trkpt lat="44.90708" lon="6.04921">
        <ele>1262.7</ele>
        <time>2026-08-08T09:04:23.431Z</time>
      </trkpt>
      <trkpt lat="44.90706" lon="6.0494">
        <ele>1263.4</ele>
        <time>2026-08-08T09:04:26.252Z</time>
      </trkpt>
      <trkpt lat="44.90704" lon="6.04956">
        <ele>1264.1</ele>
        <time>2026-08-08T09:04:29.005Z</time>
      </trkpt>
      <trkpt lat="44.90702" lon="6.0497">
        <ele>1264.6</ele>
        <time>2026-08-08T09:04:31.059Z</time>
      </trkpt>
      <trkpt lat="44.90702" lon="6.04979">
        <ele>1265.2</ele>
        <time>2026-08-08T09:04:33.400Z</time>
      </trkpt>
      <trkpt lat="44.90703" lon="6.04991">
        <ele>1266</ele>
        <time>2026-08-08T09:04:36.589Z</time>
      </trkpt>
      <trkpt lat="44.90704" lon="6.05006">
        <ele>1266.9</ele>
        <time>2026-08-08T09:04:40.056Z</time>
      </trkpt>
      <trkpt lat="44.90706" lon="6.05023">
        <ele>1267.4</ele>
        <time>2026-08-08T09:04:42.273Z</time>
      </trkpt>
      <trkpt lat="44.90708" lon="6.05034">
        <ele>1268</ele>
        <time>2026-08-08T09:04:44.572Z</time>
      </trkpt>
      <trkpt lat="44.90709" lon="6.05048">
        <ele>1269</ele>
        <time>2026-08-08T09:04:48.554Z</time>
      </trkpt>
      <trkpt lat="44.90709" lon="6.05061">
        <ele>1269.9</ele>
        <time>2026-08-08T09:04:52.129Z</time>
      </trkpt>
      <trkpt lat="44.90709" lon="6.05089">
        <ele>1271.9</ele>
        <time>2026-08-08T09:05:00.141Z</time>
      </trkpt>
      <trkpt lat="44.90709" lon="6.05105">
        <ele>1273.1</ele>
        <time>2026-08-08T09:05:04.957Z</time>
      </trkpt>
      <trkpt lat="44.9071" lon="6.05122">
        <ele>1273.9</ele>
        <time>2026-08-08T09:05:08.040Z</time>
      </trkpt>
      <trkpt lat="44.90712" lon="6.05136">
        <ele>1274.3</ele>
        <time>2026-08-08T09:05:09.856Z</time>
      </trkpt>
      <trkpt lat="44.90716" lon="6.05151">
        <ele>1274.7</ele>
        <time>2026-08-08T09:05:11.849Z</time>
      </trkpt>
      <trkpt lat="44.90726" lon="6.05178">
        <ele>1275.8</ele>
        <time>2026-08-08T09:05:16.314Z</time>
      </trkpt>
      <trkpt lat="44.90731" lon="6.05188">
        <ele>1276.5</ele>
        <time>2026-08-08T09:05:19.011Z</time>
      </trkpt>
      <trkpt lat="44.90737" lon="6.05202">
        <ele>1277.4</ele>
        <time>2026-08-08T09:05:22.465Z</time>
      </trkpt>
      <trkpt lat="44.90737" lon="6.05203">
        <ele>1277.5</ele>
        <time>2026-08-08T09:05:22.870Z</time>
      </trkpt>
      <trkpt lat="44.90749" lon="6.05233">
        <ele>1279.7</ele>
        <time>2026-08-08T09:05:31.481Z</time>
      </trkpt>
      <trkpt lat="44.9075" lon="6.05236">
        <ele>1280</ele>
        <time>2026-08-08T09:05:32.658Z</time>
      </trkpt>
      <trkpt lat="44.90755" lon="6.0525">
        <ele>1281</ele>
        <time>2026-08-08T09:05:36.557Z</time>
      </trkpt>
      <trkpt lat="44.90767" lon="6.05318">
        <ele>1285.9</ele>
        <time>2026-08-08T09:05:56.083Z</time>
      </trkpt>
      <trkpt lat="44.9077" lon="6.0536">
        <ele>1288.9</ele>
        <time>2026-08-08T09:06:08.044Z</time>
      </trkpt>
      <trkpt lat="44.90777" lon="6.05408">
        <ele>1291.4</ele>
        <time>2026-08-08T09:06:17.623Z</time>
      </trkpt>
      <trkpt lat="44.90778" lon="6.05413">
        <ele>1291.8</ele>
        <time>2026-08-08T09:06:19.235Z</time>
      </trkpt>
      <trkpt lat="44.9078" lon="6.0542">
        <ele>1292.1</ele>
        <time>2026-08-08T09:06:20.431Z</time>
      </trkpt>
      <trkpt lat="44.90781" lon="6.05425">
        <ele>1292.4</ele>
        <time>2026-08-08T09:06:21.581Z</time>
      </trkpt>
      <trkpt lat="44.90786" lon="6.0543">
        <ele>1292.6</ele>
        <time>2026-08-08T09:06:22.521Z</time>
      </trkpt>
      <trkpt lat="44.90796" lon="6.05433">
        <ele>1293</ele>
        <time>2026-08-08T09:06:24.391Z</time>
      </trkpt>
      <trkpt lat="44.90815" lon="6.05437">
        <ele>1293.5</ele>
        <time>2026-08-08T09:06:27.398Z</time>
      </trkpt>
      <trkpt lat="44.90824" lon="6.05439">
        <ele>1293.6</ele>
        <time>2026-08-08T09:06:28.633Z</time>
      </trkpt>
      <trkpt lat="44.90827" lon="6.0544">
        <ele>1293.7</ele>
        <time>2026-08-08T09:06:29.101Z</time>
      </trkpt>
      <trkpt lat="44.90835" lon="6.05442">
        <ele>1293.8</ele>
        <time>2026-08-08T09:06:30.121Z</time>
      </trkpt>
      <trkpt lat="44.90849" lon="6.05446">
        <ele>1294.1</ele>
        <time>2026-08-08T09:06:32.290Z</time>
      </trkpt>
      <trkpt lat="44.90851" lon="6.05447">
        <ele>1294.2</ele>
        <time>2026-08-08T09:06:32.731Z</time>
      </trkpt>
      <trkpt lat="44.90859" lon="6.05445">
        <ele>1294</ele>
        <time>2026-08-08T09:06:33.444Z</time>
      </trkpt>
      <trkpt lat="44.90861" lon="6.05445">
        <ele>1294</ele>
        <time>2026-08-08T09:06:33.670Z</time>
      </trkpt>
      <trkpt lat="44.90862" lon="6.05458">
        <ele>1295</ele>
        <time>2026-08-08T09:06:37.705Z</time>
      </trkpt>
      <trkpt lat="44.90865" lon="6.05472">
        <ele>1296.1</ele>
        <time>2026-08-08T09:06:42.146Z</time>
      </trkpt>
      <trkpt lat="44.90866" lon="6.05474">
        <ele>1296.3</ele>
        <time>2026-08-08T09:06:42.953Z</time>
      </trkpt>
      <trkpt lat="44.90866" lon="6.05477">
        <ele>1296.6</ele>
        <time>2026-08-08T09:06:43.991Z</time>
      </trkpt>
      <trkpt lat="44.90868" lon="6.05478">
        <ele>1296.8</ele>
        <time>2026-08-08T09:06:44.792Z</time>
      </trkpt>
      <trkpt lat="44.90874" lon="6.05477">
        <ele>1296.8</ele>
        <time>2026-08-08T09:06:45.424Z</time>
      </trkpt>
      <trkpt lat="44.90879" lon="6.05476">
        <ele>1296.9</ele>
        <time>2026-08-08T09:06:46.198Z</time>
      </trkpt>
      <trkpt lat="44.90887" lon="6.05476">
        <ele>1297.2</ele>
        <time>2026-08-08T09:06:47.661Z</time>
        <extensions>
          <visugpx:TrkExtension xmlns:visugpx="https://www.visugpx.com/editgpx/">
            <visugpx:node>2</visugpx:node>
            </visugpx:TrkExtension>
        </extensions>
      </trkpt>
      <trkpt lat="44.90879" lon="6.05476">
        <ele>1296.9</ele>
        <time>2026-08-08T09:06:48.407Z</time>
      </trkpt>
      <trkpt lat="44.90874" lon="6.05477">
        <ele>1296.8</ele>
        <time>2026-08-08T09:06:48.953Z</time>
      </trkpt>
      <trkpt lat="44.90868" lon="6.05478">
        <ele>1296.8</ele>
        <time>2026-08-08T09:06:49.584Z</time>
      </trkpt>
      <trkpt lat="44.90866" lon="6.05477">
        <ele>1296.6</ele>
        <time>2026-08-08T09:06:49.723Z</time>
      </trkpt>
      <trkpt lat="44.90866" lon="6.05474">
        <ele>1296.3</ele>
        <time>2026-08-08T09:06:49.869Z</time>
      </trkpt>
      <trkpt lat="44.90865" lon="6.05472">
        <ele>1296.1</ele>
        <time>2026-08-08T09:06:49.990Z</time>
      </trkpt>
      <trkpt lat="44.90862" lon="6.05458">
        <ele>1295</ele>
        <time>2026-08-08T09:06:50.712Z</time>
      </trkpt>
      <trkpt lat="44.90861" lon="6.05445">
        <ele>1294</ele>
        <time>2026-08-08T09:06:51.372Z</time>
      </trkpt>
      <trkpt lat="44.90859" lon="6.05445">
        <ele>1294</ele>
        <time>2026-08-08T09:06:51.598Z</time>
      </trkpt>
      <trkpt lat="44.90851" lon="6.05447">
        <ele>1294.2</ele>
        <time>2026-08-08T09:06:52.777Z</time>
      </trkpt>
      <trkpt lat="44.90849" lon="6.05446">
        <ele>1294.1</ele>
        <time>2026-08-08T09:06:52.972Z</time>
      </trkpt>
      <trkpt lat="44.90835" lon="6.05442">
        <ele>1293.8</ele>
        <time>2026-08-08T09:06:54.452Z</time>
      </trkpt>
      <trkpt lat="44.90827" lon="6.0544">
        <ele>1293.7</ele>
        <time>2026-08-08T09:06:55.246Z</time>
      </trkpt>
      <trkpt lat="44.90824" lon="6.05439">
        <ele>1293.6</ele>
        <time>2026-08-08T09:06:55.472Z</time>
      </trkpt>
      <trkpt lat="44.90815" lon="6.05437">
        <ele>1293.5</ele>
        <time>2026-08-08T09:06:56.482Z</time>
      </trkpt>
      <trkpt lat="44.90796" lon="6.05433">
        <ele>1293</ele>
        <time>2026-08-08T09:06:58.327Z</time>
      </trkpt>
      <trkpt lat="44.90786" lon="6.0543">
        <ele>1292.6</ele>
        <time>2026-08-08T09:06:59.230Z</time>
      </trkpt>
      <trkpt lat="44.90781" lon="6.05425">
        <ele>1292.4</ele>
        <time>2026-08-08T09:06:59.688Z</time>
      </trkpt>
      <trkpt lat="44.9078" lon="6.0542">
        <ele>1292.1</ele>
        <time>2026-08-08T09:06:59.966Z</time>
      </trkpt>
      <trkpt lat="44.90778" lon="6.05413">
        <ele>1291.8</ele>
        <time>2026-08-08T09:07:00.377Z</time>
      </trkpt>
      <trkpt lat="44.90777" lon="6.05408">
        <ele>1291.4</ele>
        <time>2026-08-08T09:07:00.645Z</time>
      </trkpt>
      <trkpt lat="44.9077" lon="6.0536">
        <ele>1288.9</ele>
        <time>2026-08-08T09:07:03.103Z</time>
      </trkpt>
      <trkpt lat="44.90767" lon="6.05318">
        <ele>1285.9</ele>
        <time>2026-08-08T09:07:05.237Z</time>
      </trkpt>
      <trkpt lat="44.90755" lon="6.0525">
        <ele>1281</ele>
        <time>2026-08-08T09:07:08.732Z</time>
      </trkpt>
      <trkpt lat="44.9075" lon="6.05236">
        <ele>1280</ele>
        <time>2026-08-08T09:07:09.532Z</time>
      </trkpt>
      <trkpt lat="44.90749" lon="6.05233">
        <ele>1279.7</ele>
        <time>2026-08-08T09:07:09.698Z</time>
      </trkpt>
      <trkpt lat="44.90737" lon="6.05203">
        <ele>1277.5</ele>
        <time>2026-08-08T09:07:11.418Z</time>
      </trkpt>
      <trkpt lat="44.90737" lon="6.05202">
        <ele>1277.4</ele>
        <time>2026-08-08T09:07:11.480Z</time>
      </trkpt>
      <trkpt lat="44.90731" lon="6.05188">
        <ele>1276.5</ele>
        <time>2026-08-08T09:07:12.302Z</time>
      </trkpt>
      <trkpt lat="44.90726" lon="6.05178">
        <ele>1275.8</ele>
        <time>2026-08-08T09:07:12.910Z</time>
      </trkpt>
      <trkpt lat="44.90716" lon="6.05151">
        <ele>1274.7</ele>
        <time>2026-08-08T09:07:14.544Z</time>
      </trkpt>
      <trkpt lat="44.90712" lon="6.05136">
        <ele>1274.3</ele>
        <time>2026-08-08T09:07:15.584Z</time>
      </trkpt>
      <trkpt lat="44.9071" lon="6.05122">
        <ele>1273.9</ele>
        <time>2026-08-08T09:07:16.425Z</time>
      </trkpt>
      <trkpt lat="44.90709" lon="6.05105">
        <ele>1273.1</ele>
        <time>2026-08-08T09:07:17.291Z</time>
      </trkpt>
      <trkpt lat="44.90709" lon="6.05089">
        <ele>1271.9</ele>
        <time>2026-08-08T09:07:18.114Z</time>
      </trkpt>
      <trkpt lat="44.90709" lon="6.05061">
        <ele>1269.9</ele>
        <time>2026-08-08T09:07:19.500Z</time>
      </trkpt>
      <trkpt lat="44.90709" lon="6.05048">
        <ele>1269</ele>
        <time>2026-08-08T09:07:20.153Z</time>
      </trkpt>
      <trkpt lat="44.90708" lon="6.05034">
        <ele>1268</ele>
        <time>2026-08-08T09:07:20.869Z</time>
      </trkpt>
      <trkpt lat="44.90706" lon="6.05023">
        <ele>1267.4</ele>
        <time>2026-08-08T09:07:21.446Z</time>
      </trkpt>
      <trkpt lat="44.90704" lon="6.05006">
        <ele>1266.9</ele>
        <time>2026-08-08T09:07:22.436Z</time>
      </trkpt>
      <trkpt lat="44.90703" lon="6.04991">
        <ele>1266</ele>
        <time>2026-08-08T09:07:23.221Z</time>
      </trkpt>
      <trkpt lat="44.90702" lon="6.04979">
        <ele>1265.2</ele>
        <time>2026-08-08T09:07:23.791Z</time>
      </trkpt>
      <trkpt lat="44.90702" lon="6.0497">
        <ele>1264.6</ele>
        <time>2026-08-08T09:07:24.268Z</time>
      </trkpt>
      <trkpt lat="44.90704" lon="6.04956">
        <ele>1264.1</ele>
        <time>2026-08-08T09:07:25.046Z</time>
      </trkpt>
      <trkpt lat="44.90706" lon="6.0494">
        <ele>1263.4</ele>
        <time>2026-08-08T09:07:25.937Z</time>
      </trkpt>
      <trkpt lat="44.90708" lon="6.04921">
        <ele>1262.7</ele>
        <time>2026-08-08T09:07:26.946Z</time>
      </trkpt>
      <trkpt lat="44.9071" lon="6.04905">
        <ele>1262</ele>
        <time>2026-08-08T09:07:27.791Z</time>
      </trkpt>
      <trkpt lat="44.90711" lon="6.04893">
        <ele>1261.5</ele>
        <time>2026-08-08T09:07:28.486Z</time>
      </trkpt>
      <trkpt lat="44.90712" lon="6.04881">
        <ele>1260.8</ele>
        <time>2026-08-08T09:07:29.077Z</time>
      </trkpt>
      <trkpt lat="44.90712" lon="6.04869">
        <ele>1260</ele>
        <time>2026-08-08T09:07:29.654Z</time>
      </trkpt>
      <trkpt lat="44.90711" lon="6.04858">
        <ele>1259.3</ele>
        <time>2026-08-08T09:07:30.224Z</time>
      </trkpt>
      <trkpt lat="44.9071" lon="6.04839">
        <ele>1258.7</ele>
        <time>2026-08-08T09:07:31.312Z</time>
      </trkpt>
      <trkpt lat="44.90708" lon="6.04807">
        <ele>1257.6</ele>
        <time>2026-08-08T09:07:33.169Z</time>
      </trkpt>
      <trkpt lat="44.90706" lon="6.04793">
        <ele>1257.1</ele>
        <time>2026-08-08T09:07:33.973Z</time>
      </trkpt>
      <trkpt lat="44.90704" lon="6.04779">
        <ele>1256.7</ele>
        <time>2026-08-08T09:07:34.791Z</time>
      </trkpt>
      <trkpt lat="44.90696" lon="6.04742">
        <ele>1254.4</ele>
        <time>2026-08-08T09:07:36.735Z</time>
      </trkpt>
      <trkpt lat="44.90693" lon="6.0473">
        <ele>1253.6</ele>
        <time>2026-08-08T09:07:37.367Z</time>
      </trkpt>
      <trkpt lat="44.90689" lon="6.04717">
        <ele>1253</ele>
        <time>2026-08-08T09:07:38.147Z</time>
      </trkpt>
      <trkpt lat="44.90684" lon="6.04704">
        <ele>1252.7</ele>
        <time>2026-08-08T09:07:39.097Z</time>
      </trkpt>
      <trkpt lat="44.90678" lon="6.04693">
        <ele>1252.5</ele>
        <time>2026-08-08T09:07:40.032Z</time>
      </trkpt>
      <trkpt lat="44.90671" lon="6.04679">
        <ele>1252.3</ele>
        <time>2026-08-08T09:07:41.295Z</time>
      </trkpt>
      <trkpt lat="44.90665" lon="6.04661">
        <ele>1251.7</ele>
        <time>2026-08-08T09:07:42.484Z</time>
      </trkpt>
      <trkpt lat="44.9066" lon="6.04641">
        <ele>1250.8</ele>
        <time>2026-08-08T09:07:43.602Z</time>
      </trkpt>
      <trkpt lat="44.90647" lon="6.0458">
        <ele>1247.7</ele>
        <time>2026-08-08T09:07:46.790Z</time>
      </trkpt>
      <trkpt lat="44.90641" lon="6.0456">
        <ele>1246.3</ele>
        <time>2026-08-08T09:07:47.863Z</time>
      </trkpt>
      <trkpt lat="44.90617" lon="6.0449">
        <ele>1241.6</ele>
        <time>2026-08-08T09:07:51.801Z</time>
      </trkpt>
      <trkpt lat="44.90609" lon="6.04473">
        <ele>1241.1</ele>
        <time>2026-08-08T09:07:53.041Z</time>
      </trkpt>
      <trkpt lat="44.906" lon="6.04459">
        <ele>1240.9</ele>
        <time>2026-08-08T09:07:54.366Z</time>
      </trkpt>
      <trkpt lat="44.90588" lon="6.04446">
        <ele>1240.9</ele>
        <time>2026-08-08T09:07:56.234Z</time>
      </trkpt>
      <trkpt lat="44.90576" lon="6.04434">
        <ele>1241.6</ele>
        <time>2026-08-08T09:07:59.146Z</time>
      </trkpt>
      <trkpt lat="44.90563" lon="6.04411">
        <ele>1242</ele>
        <time>2026-08-08T09:08:02.144Z</time>
      </trkpt>
      <trkpt lat="44.90539" lon="6.04346">
        <ele>1243.1</ele>
        <time>2026-08-08T09:08:09.787Z</time>
      </trkpt>
      <trkpt lat="44.90531" lon="6.04303">
        <ele>1241</ele>
        <time>2026-08-08T09:08:12.040Z</time>
      </trkpt>
      <trkpt lat="44.90537" lon="6.04258">
        <ele>1235.8</ele>
        <time>2026-08-08T09:08:14.320Z</time>
      </trkpt>
      <trkpt lat="44.90532" lon="6.04241">
        <ele>1234.7</ele>
        <time>2026-08-08T09:08:15.208Z</time>
      </trkpt>
      <trkpt lat="44.90527" lon="6.04229">
        <ele>1233.8</ele>
        <time>2026-08-08T09:08:15.898Z</time>
      </trkpt>
      <trkpt lat="44.90523" lon="6.04209">
        <ele>1232.2</ele>
        <time>2026-08-08T09:08:16.951Z</time>
      </trkpt>
      <trkpt lat="44.90523" lon="6.04194">
        <ele>1230.5</ele>
        <time>2026-08-08T09:08:17.722Z</time>
      </trkpt>
      <trkpt lat="44.90524" lon="6.04179">
        <ele>1229.1</ele>
        <time>2026-08-08T09:08:18.480Z</time>
      </trkpt>
      <trkpt lat="44.90529" lon="6.04169">
        <ele>1228.3</ele>
        <time>2026-08-08T09:08:19.074Z</time>
      </trkpt>
      <trkpt lat="44.90539" lon="6.04148">
        <ele>1229.2</ele>
        <time>2026-08-08T09:08:22.778Z</time>
      </trkpt>
      <trkpt lat="44.90548" lon="6.04133">
        <ele>1230.9</ele>
        <time>2026-08-08T09:08:29.594Z</time>
      </trkpt>
      <trkpt lat="44.9055" lon="6.04129">
        <ele>1231.5</ele>
        <time>2026-08-08T09:08:31.382Z</time>
      </trkpt>
      <trkpt lat="44.90551" lon="6.04118">
        <ele>1231.7</ele>
        <time>2026-08-08T09:08:32.548Z</time>
      </trkpt>
      <trkpt lat="44.90551" lon="6.04109">
        <ele>1231.6</ele>
        <time>2026-08-08T09:08:33.251Z</time>
      </trkpt>
      <trkpt lat="44.90541" lon="6.04069">
        <ele>1227.9</ele>
        <time>2026-08-08T09:08:35.365Z</time>
      </trkpt>
      <trkpt lat="44.90533" lon="6.04019">
        <ele>1225.3</ele>
        <time>2026-08-08T09:08:37.966Z</time>
      </trkpt>
      <trkpt lat="44.90526" lon="6.03978">
        <ele>1227.3</ele>
        <time>2026-08-08T09:08:45.660Z</time>
      </trkpt>
      <trkpt lat="44.90521" lon="6.03964">
        <ele>1228.1</ele>
        <time>2026-08-08T09:08:48.725Z</time>
      </trkpt>
      <trkpt lat="44.90516" lon="6.03957">
        <ele>1227.9</ele>
        <time>2026-08-08T09:08:49.412Z</time>
      </trkpt>
      <trkpt lat="44.90505" lon="6.03952">
        <ele>1225</ele>
        <time>2026-08-08T09:08:50.207Z</time>
      </trkpt>
      <trkpt lat="44.90494" lon="6.03951">
        <ele>1222.2</ele>
        <time>2026-08-08T09:08:50.963Z</time>
      </trkpt>
      <trkpt lat="44.90474" lon="6.03949">
        <ele>1217.8</ele>
        <time>2026-08-08T09:08:52.414Z</time>
      </trkpt>
      <trkpt lat="44.90464" lon="6.03945">
        <ele>1216.5</ele>
        <time>2026-08-08T09:08:53.098Z</time>
      </trkpt>
      <trkpt lat="44.90451" lon="6.03933">
        <ele>1215.6</ele>
        <time>2026-08-08T09:08:54.317Z</time>
      </trkpt>
      <trkpt lat="44.9043" lon="6.03912">
        <ele>1213.5</ele>
        <time>2026-08-08T09:08:56.139Z</time>
      </trkpt>
      <trkpt lat="44.90416" lon="6.03892">
        <ele>1212.6</ele>
        <time>2026-08-08T09:08:57.781Z</time>
      </trkpt>
      <trkpt lat="44.90401" lon="6.03859">
        <ele>1212.6</ele>
        <time>2026-08-08T09:09:01.040Z</time>
      </trkpt>
      <trkpt lat="44.90382" lon="6.03812">
        <ele>1211.4</ele>
        <time>2026-08-08T09:09:04.487Z</time>
      </trkpt>
      <trkpt lat="44.90373" lon="6.038">
        <ele>1209.4</ele>
        <time>2026-08-08T09:09:05.390Z</time>
      </trkpt>
      <trkpt lat="44.90363" lon="6.03792">
        <ele>1206.7</ele>
        <time>2026-08-08T09:09:06.145Z</time>
      </trkpt>
      <trkpt lat="44.90351" lon="6.03785">
        <ele>1204.6</ele>
        <time>2026-08-08T09:09:07.093Z</time>
      </trkpt>
      <trkpt lat="44.90344" lon="6.03777">
        <ele>1203.5</ele>
        <time>2026-08-08T09:09:07.768Z</time>
      </trkpt>
      <trkpt lat="44.9034" lon="6.03764">
        <ele>1202.8</ele>
        <time>2026-08-08T09:09:08.433Z</time>
      </trkpt>
      <trkpt lat="44.90336" lon="6.0374">
        <ele>1201.6</ele>
        <time>2026-08-08T09:09:09.685Z</time>
      </trkpt>
      <trkpt lat="44.9033" lon="6.0372">
        <ele>1200.6</ele>
        <time>2026-08-08T09:09:10.777Z</time>
      </trkpt>
      <trkpt lat="44.90323" lon="6.03707">
        <ele>1199.9</ele>
        <time>2026-08-08T09:09:11.599Z</time>
      </trkpt>
      <trkpt lat="44.90315" lon="6.03687">
        <ele>1198.2</ele>
        <time>2026-08-08T09:09:12.748Z</time>
      </trkpt>
      <trkpt lat="44.90314" lon="6.03674">
        <ele>1198</ele>
        <time>2026-08-08T09:09:13.680Z</time>
      </trkpt>
      <trkpt lat="44.90316" lon="6.03654">
        <ele>1199.2</ele>
        <time>2026-08-08T09:09:18.332Z</time>
      </trkpt>
      <trkpt lat="44.90317" lon="6.03639">
        <ele>1200.2</ele>
        <time>2026-08-08T09:09:22.278Z</time>
      </trkpt>
      <trkpt lat="44.90313" lon="6.03624">
        <ele>1199.9</ele>
        <time>2026-08-08T09:09:23.321Z</time>
      </trkpt>
      <trkpt lat="44.90304" lon="6.03598">
        <ele>1198.5</ele>
        <time>2026-08-08T09:09:24.783Z</time>
      </trkpt>
      <trkpt lat="44.90296" lon="6.03571">
        <ele>1198.8</ele>
        <time>2026-08-08T09:09:27.661Z</time>
      </trkpt>
      <trkpt lat="44.90292" lon="6.03553">
        <ele>1199.3</ele>
        <time>2026-08-08T09:09:29.969Z</time>
      </trkpt>
      <trkpt lat="44.90284" lon="6.03539">
        <ele>1198.2</ele>
        <time>2026-08-08T09:09:30.888Z</time>
      </trkpt>
      <trkpt lat="44.90275" lon="6.03528">
        <ele>1196.2</ele>
        <time>2026-08-08T09:09:31.724Z</time>
      </trkpt>
      <trkpt lat="44.9026" lon="6.03516">
        <ele>1192.2</ele>
        <time>2026-08-08T09:09:32.960Z</time>
      </trkpt>
      <trkpt lat="44.90248" lon="6.03504">
        <ele>1189.4</ele>
        <time>2026-08-08T09:09:33.994Z</time>
      </trkpt>
      <trkpt lat="44.90242" lon="6.03494">
        <ele>1188.6</ele>
        <time>2026-08-08T09:09:34.659Z</time>
      </trkpt>
      <trkpt lat="44.90233" lon="6.03471">
        <ele>1187.7</ele>
        <time>2026-08-08T09:09:36.135Z</time>
      </trkpt>
      <trkpt lat="44.90222" lon="6.03454">
        <ele>1185.4</ele>
        <time>2026-08-08T09:09:37.294Z</time>
      </trkpt>
      <trkpt lat="44.90203" lon="6.03433">
        <ele>1181.7</ele>
        <time>2026-08-08T09:09:39.024Z</time>
      </trkpt>
      <trkpt lat="44.9019" lon="6.03408">
        <ele>1179.2</ele>
        <time>2026-08-08T09:09:40.583Z</time>
      </trkpt>
      <trkpt lat="44.90183" lon="6.03388">
        <ele>1177.9</ele>
        <time>2026-08-08T09:09:41.715Z</time>
      </trkpt>
      <trkpt lat="44.90178" lon="6.03366">
        <ele>1177.7</ele>
        <time>2026-08-08T09:09:43.401Z</time>
      </trkpt>
      <trkpt lat="44.90162" lon="6.03316">
        <ele>1174.3</ele>
        <time>2026-08-08T09:09:46.169Z</time>
      </trkpt>
      <trkpt lat="44.90155" lon="6.03296">
        <ele>1173.1</ele>
        <time>2026-08-08T09:09:47.263Z</time>
      </trkpt>
      <trkpt lat="44.9015" lon="6.0329">
        <ele>1172.1</ele>
        <time>2026-08-08T09:09:47.772Z</time>
      </trkpt>
      <trkpt lat="44.9014" lon="6.03288">
        <ele>1170.3</ele>
        <time>2026-08-08T09:09:48.428Z</time>
      </trkpt>
      <trkpt lat="44.90127" lon="6.03286">
        <ele>1169.5</ele>
        <time>2026-08-08T09:09:49.420Z</time>
      </trkpt>
      <trkpt lat="44.90116" lon="6.03281">
        <ele>1168.6</ele>
        <time>2026-08-08T09:09:50.237Z</time>
      </trkpt>
      <trkpt lat="44.90108" lon="6.0327">
        <ele>1168.4</ele>
        <time>2026-08-08T09:09:51.382Z</time>
      </trkpt>
      <trkpt lat="44.90072" lon="6.03208">
        <ele>1166.3</ele>
        <time>2026-08-08T09:09:56.227Z</time>
      </trkpt>
      <trkpt lat="44.90017" lon="6.03134">
        <ele>1162.2</ele>
        <time>2026-08-08T09:10:02.112Z</time>
      </trkpt>
      <trkpt lat="44.89934" lon="6.03029">
        <ele>1155.3</ele>
        <time>2026-08-08T09:10:10.213Z</time>
      </trkpt>
      <trkpt lat="44.89867" lon="6.02948">
        <ele>1150.4</ele>
        <time>2026-08-08T09:10:16.932Z</time>
      </trkpt>
      <trkpt lat="44.89864" lon="6.02944">
        <ele>1149.8</ele>
        <time>2026-08-08T09:10:17.252Z</time>
      </trkpt>
      <trkpt lat="44.89854" lon="6.0293">
        <ele>1149.8</ele>
        <time>2026-08-08T09:10:18.924Z</time>
      </trkpt>
      <trkpt lat="44.89815" lon="6.02873">
        <ele>1148</ele>
        <time>2026-08-08T09:10:23.889Z</time>
      </trkpt>
      <trkpt lat="44.89783" lon="6.02832">
        <ele>1147.3</ele>
        <time>2026-08-08T09:10:28.383Z</time>
      </trkpt>
      <trkpt lat="44.89779" lon="6.02822">
        <ele>1146.7</ele>
        <time>2026-08-08T09:10:28.921Z</time>
      </trkpt>
      <trkpt lat="44.89768" lon="6.02791">
        <ele>1145.3</ele>
        <time>2026-08-08T09:10:30.828Z</time>
      </trkpt>
      <trkpt lat="44.8975" lon="6.02744">
        <ele>1142.6</ele>
        <time>2026-08-08T09:10:33.491Z</time>
      </trkpt>
      <trkpt lat="44.89715" lon="6.02696">
        <ele>1141</ele>
        <time>2026-08-08T09:10:37.872Z</time>
      </trkpt>
      <trkpt lat="44.89684" lon="6.02642">
        <ele>1137.1</ele>
        <time>2026-08-08T09:10:41.377Z</time>
      </trkpt>
      <trkpt lat="44.89679" lon="6.02622">
        <ele>1136.3</ele>
        <time>2026-08-08T09:10:42.496Z</time>
      </trkpt>
      <trkpt lat="44.89676" lon="6.02604">
        <ele>1137.1</ele>
        <time>2026-08-08T09:10:45.606Z</time>
      </trkpt>
      <trkpt lat="44.89671" lon="6.02587">
        <ele>1139.9</ele>
        <time>2026-08-08T09:10:52.133Z</time>
      </trkpt>
      <trkpt lat="44.89664" lon="6.02579">
        <ele>1140.6</ele>
        <time>2026-08-08T09:10:54.815Z</time>
      </trkpt>
      <trkpt lat="44.89653" lon="6.02575">
        <ele>1139.2</ele>
        <time>2026-08-08T09:10:55.644Z</time>
      </trkpt>
      <trkpt lat="44.89644" lon="6.02571">
        <ele>1137.6</ele>
        <time>2026-08-08T09:10:56.308Z</time>
      </trkpt>
      <trkpt lat="44.89634" lon="6.0256">
        <ele>1137.9</ele>
        <time>2026-08-08T09:10:58.217Z</time>
      </trkpt>
      <trkpt lat="44.89623" lon="6.02544">
        <ele>1140.1</ele>
        <time>2026-08-08T09:11:06.170Z</time>
      </trkpt>
      <trkpt lat="44.89611" lon="6.02531">
        <ele>1139.7</ele>
        <time>2026-08-08T09:11:07.629Z</time>
      </trkpt>
      <trkpt lat="44.89597" lon="6.02521">
        <ele>1138.3</ele>
        <time>2026-08-08T09:11:08.718Z</time>
      </trkpt>
      <trkpt lat="44.89575" lon="6.02504">
        <ele>1136.8</ele>
        <time>2026-08-08T09:11:10.525Z</time>
      </trkpt>
      <trkpt lat="44.89557" lon="6.02489">
        <ele>1135.7</ele>
        <time>2026-08-08T09:11:12.194Z</time>
      </trkpt>
      <trkpt lat="44.89527" lon="6.02467">
        <ele>1133.3</ele>
        <time>2026-08-08T09:11:14.574Z</time>
      </trkpt>
      <trkpt lat="44.89513" lon="6.02465">
        <ele>1129.9</ele>
        <time>2026-08-08T09:11:15.600Z</time>
      </trkpt>
      <trkpt lat="44.895" lon="6.02467">
        <ele>1125.2</ele>
        <time>2026-08-08T09:11:16.526Z</time>
      </trkpt>
      <trkpt lat="44.89488" lon="6.02475">
        <ele>1120.2</ele>
        <time>2026-08-08T09:11:17.424Z</time>
      </trkpt>
      <trkpt lat="44.89483" lon="6.02478">
        <ele>1118.5</ele>
        <time>2026-08-08T09:11:17.811Z</time>
      </trkpt>
      <trkpt lat="44.89479" lon="6.0248">
        <ele>1117.3</ele>
        <time>2026-08-08T09:11:18.115Z</time>
      </trkpt>
      <trkpt lat="44.89468" lon="6.02484">
        <ele>1114.4</ele>
        <time>2026-08-08T09:11:18.900Z</time>
      </trkpt>
      <trkpt lat="44.89467" lon="6.02485">
        <ele>1113.9</ele>
        <time>2026-08-08T09:11:19.027Z</time>
      </trkpt>
      <trkpt lat="44.89454" lon="6.02486">
        <ele>1111.5</ele>
        <time>2026-08-08T09:11:19.915Z</time>
      </trkpt>
      <trkpt lat="44.89443" lon="6.02482">
        <ele>1110.8</ele>
        <time>2026-08-08T09:11:20.760Z</time>
      </trkpt>
      <trkpt lat="44.89431" lon="6.02476">
        <ele>1110</ele>
        <time>2026-08-08T09:11:21.712Z</time>
      </trkpt>
      <trkpt lat="44.89419" lon="6.02475">
        <ele>1108</ele>
        <time>2026-08-08T09:11:22.586Z</time>
      </trkpt>
      <trkpt lat="44.89407" lon="6.02478">
        <ele>1105.5</ele>
        <time>2026-08-08T09:11:23.452Z</time>
      </trkpt>
      <trkpt lat="44.89395" lon="6.02479">
        <ele>1103.5</ele>
        <time>2026-08-08T09:11:24.289Z</time>
      </trkpt>
      <trkpt lat="44.89386" lon="6.02475">
        <ele>1102.3</ele>
        <time>2026-08-08T09:11:24.964Z</time>
      </trkpt>
      <trkpt lat="44.89377" lon="6.02469">
        <ele>1101.9</ele>
        <time>2026-08-08T09:11:25.776Z</time>
      </trkpt>
      <trkpt lat="44.89365" lon="6.0245">
        <ele>1103.9</ele>
        <time>2026-08-08T09:11:33.867Z</time>
      </trkpt>
      <trkpt lat="44.89354" lon="6.02428">
        <ele>1107</ele>
        <time>2026-08-08T09:11:43.234Z</time>
      </trkpt>
      <trkpt lat="44.89346" lon="6.02413">
        <ele>1109</ele>
        <time>2026-08-08T09:11:50.181Z</time>
      </trkpt>
      <trkpt lat="44.89335" lon="6.02402">
        <ele>1109.4</ele>
        <time>2026-08-08T09:11:52.353Z</time>
      </trkpt>
      <trkpt lat="44.89322" lon="6.02393">
        <ele>1109.2</ele>
        <time>2026-08-08T09:11:53.895Z</time>
      </trkpt>
      <trkpt lat="44.89305" lon="6.02385">
        <ele>1107.9</ele>
        <time>2026-08-08T09:11:55.124Z</time>
      </trkpt>
      <trkpt lat="44.89292" lon="6.02379">
        <ele>1107.5</ele>
        <time>2026-08-08T09:11:56.368Z</time>
      </trkpt>
      <trkpt lat="44.89274" lon="6.02368">
        <ele>1107.9</ele>
        <time>2026-08-08T09:11:59.250Z</time>
      </trkpt>
      <trkpt lat="44.89262" lon="6.02364">
        <ele>1106.4</ele>
        <time>2026-08-08T09:12:00.125Z</time>
      </trkpt>
      <trkpt lat="44.89248" lon="6.02362">
        <ele>1102.9</ele>
        <time>2026-08-08T09:12:01.142Z</time>
      </trkpt>
      <trkpt lat="44.89233" lon="6.02366">
        <ele>1096</ele>
        <time>2026-08-08T09:12:02.243Z</time>
      </trkpt>
      <trkpt lat="44.8922" lon="6.02369">
        <ele>1090.5</ele>
        <time>2026-08-08T09:12:03.122Z</time>
      </trkpt>
      <trkpt lat="44.89208" lon="6.02368">
        <ele>1085.9</ele>
        <time>2026-08-08T09:12:04.031Z</time>
      </trkpt>
      <trkpt lat="44.89198" lon="6.02362">
        <ele>1083.1</ele>
        <time>2026-08-08T09:12:04.783Z</time>
      </trkpt>
      <trkpt lat="44.89188" lon="6.02354">
        <ele>1082.3</ele>
        <time>2026-08-08T09:12:05.607Z</time>
      </trkpt>
      <trkpt lat="44.89179" lon="6.02342">
        <ele>1082.2</ele>
        <time>2026-08-08T09:12:06.928Z</time>
      </trkpt>
      <trkpt lat="44.89172" lon="6.02324">
        <ele>1083.8</ele>
        <time>2026-08-08T09:12:13.402Z</time>
      </trkpt>
      <trkpt lat="44.89167" lon="6.02314">
        <ele>1084.4</ele>
        <time>2026-08-08T09:12:15.707Z</time>
      </trkpt>
      <trkpt lat="44.89165" lon="6.02307">
        <ele>1085</ele>
        <time>2026-08-08T09:12:18.130Z</time>
      </trkpt>
      <trkpt lat="44.89161" lon="6.02304">
        <ele>1085</ele>
        <time>2026-08-08T09:12:18.657Z</time>
      </trkpt>
      <trkpt lat="44.89157" lon="6.02303">
        <ele>1084.4</ele>
        <time>2026-08-08T09:12:18.922Z</time>
      </trkpt>
      <trkpt lat="44.89155" lon="6.02303">
        <ele>1083.7</ele>
        <time>2026-08-08T09:12:19.092Z</time>
      </trkpt>
      <trkpt lat="44.8914" lon="6.02302">
        <ele>1080.1</ele>
        <time>2026-08-08T09:12:20.143Z</time>
      </trkpt>
      <trkpt lat="44.89129" lon="6.02298">
        <ele>1079.8</ele>
        <time>2026-08-08T09:12:21.222Z</time>
      </trkpt>
      <trkpt lat="44.89118" lon="6.02292">
        <ele>1080.7</ele>
        <time>2026-08-08T09:12:24.671Z</time>
      </trkpt>
      <trkpt lat="44.89105" lon="6.02282">
        <ele>1082.6</ele>
        <time>2026-08-08T09:12:32.199Z</time>
      </trkpt>
      <trkpt lat="44.89076" lon="6.02247">
        <ele>1091.1</ele>
        <time>2026-08-08T09:12:51.346Z</time>
      </trkpt>
      <trkpt lat="44.89064" lon="6.02233">
        <ele>1092</ele>
        <time>2026-08-08T09:12:54.907Z</time>
      </trkpt>
      <trkpt lat="44.89053" lon="6.02212">
        <ele>1097.9</ele>
        <time>2026-08-08T09:13:04.365Z</time>
      </trkpt>
      <trkpt lat="44.89047" lon="6.02201">
        <ele>1101.7</ele>
        <time>2026-08-08T09:13:09.225Z</time>
      </trkpt>
      <trkpt lat="44.89037" lon="6.02193">
        <ele>1100.6</ele>
        <time>2026-08-08T09:13:10.084Z</time>
      </trkpt>
      <trkpt lat="44.8902" lon="6.02184">
        <ele>1097.1</ele>
        <time>2026-08-08T09:13:11.334Z</time>
      </trkpt>
      <trkpt lat="44.88982" lon="6.02157">
        <ele>1096.9</ele>
        <time>2026-08-08T09:13:16.161Z</time>
      </trkpt>
      <trkpt lat="44.88965" lon="6.02142">
        <ele>1100.3</ele>
        <time>2026-08-08T09:13:26.313Z</time>
      </trkpt>
      <trkpt lat="44.88957" lon="6.02139">
        <ele>1100.1</ele>
        <time>2026-08-08T09:13:27.071Z</time>
      </trkpt>
      <trkpt lat="44.88945" lon="6.02143">
        <ele>1093.2</ele>
        <time>2026-08-08T09:13:27.984Z</time>
      </trkpt>
      <trkpt lat="44.88933" lon="6.02146">
        <ele>1087.6</ele>
        <time>2026-08-08T09:13:28.808Z</time>
      </trkpt>
      <trkpt lat="44.88922" lon="6.02146">
        <ele>1083.7</ele>
        <time>2026-08-08T09:13:29.581Z</time>
      </trkpt>
      <trkpt lat="44.88909" lon="6.02143">
        <ele>1080.5</ele>
        <time>2026-08-08T09:13:30.525Z</time>
      </trkpt>
      <trkpt lat="44.88899" lon="6.02132">
        <ele>1083.5</ele>
        <time>2026-08-08T09:13:36.786Z</time>
      </trkpt>
      <trkpt lat="44.88885" lon="6.02117">
        <ele>1087</ele>
        <time>2026-08-08T09:13:45.854Z</time>
      </trkpt>
      <trkpt lat="44.88862" lon="6.02092">
        <ele>1090.7</ele>
        <time>2026-08-08T09:14:00.430Z</time>
      </trkpt>
      <trkpt lat="44.88845" lon="6.02073">
        <ele>1092.5</ele>
        <time>2026-08-08T09:14:07.378Z</time>
      </trkpt>
      <trkpt lat="44.88829" lon="6.02072">
        <ele>1085.8</ele>
        <time>2026-08-08T09:14:08.485Z</time>
      </trkpt>
      <trkpt lat="44.88815" lon="6.02065">
        <ele>1081.5</ele>
        <time>2026-08-08T09:14:09.548Z</time>
      </trkpt>
      <trkpt lat="44.88807" lon="6.0205">
        <ele>1084.3</ele>
        <time>2026-08-08T09:14:16.194Z</time>
      </trkpt>
      <trkpt lat="44.88801" lon="6.02028">
        <ele>1089.4</ele>
        <time>2026-08-08T09:14:24.594Z</time>
      </trkpt>
      <trkpt lat="44.88788" lon="6.02009">
        <ele>1087.2</ele>
        <time>2026-08-08T09:14:25.941Z</time>
      </trkpt>
      <trkpt lat="44.88779" lon="6.01995">
        <ele>1087.3</ele>
        <time>2026-08-08T09:14:27.643Z</time>
      </trkpt>
      <trkpt lat="44.88766" lon="6.01977">
        <ele>1092.8</ele>
        <time>2026-08-08T09:14:36.605Z</time>
      </trkpt>
      <trkpt lat="44.8876" lon="6.01974">
        <ele>1092.5</ele>
        <time>2026-08-08T09:14:37.117Z</time>
      </trkpt>
      <trkpt lat="44.8874" lon="6.01971">
        <ele>1087.2</ele>
        <time>2026-08-08T09:14:38.547Z</time>
      </trkpt>
      <trkpt lat="44.88728" lon="6.01963">
        <ele>1087</ele>
        <time>2026-08-08T09:14:39.931Z</time>
      </trkpt>
      <trkpt lat="44.88714" lon="6.01951">
        <ele>1088.7</ele>
        <time>2026-08-08T09:14:46.734Z</time>
      </trkpt>
      <trkpt lat="44.88699" lon="6.01945">
        <ele>1087</ele>
        <time>2026-08-08T09:14:47.789Z</time>
      </trkpt>
      <trkpt lat="44.88667" lon="6.01927">
        <ele>1080.6</ele>
        <time>2026-08-08T09:14:50.280Z</time>
      </trkpt>
      <trkpt lat="44.88658" lon="6.01917">
        <ele>1081.6</ele>
        <time>2026-08-08T09:14:54.193Z</time>
      </trkpt>
      <trkpt lat="44.88646" lon="6.01911">
        <ele>1077.4</ele>
        <time>2026-08-08T09:14:55.129Z</time>
      </trkpt>
      <trkpt lat="44.88629" lon="6.01903">
        <ele>1071.9</ele>
        <time>2026-08-08T09:14:56.374Z</time>
      </trkpt>
      <trkpt lat="44.88612" lon="6.01895">
        <ele>1066.7</ele>
        <time>2026-08-08T09:14:57.626Z</time>
      </trkpt>
      <trkpt lat="44.88586" lon="6.01882">
        <ele>1060.6</ele>
        <time>2026-08-08T09:14:59.617Z</time>
      </trkpt>
      <trkpt lat="44.88564" lon="6.0187">
        <ele>1059.2</ele>
        <time>2026-08-08T09:15:01.320Z</time>
      </trkpt>
      <trkpt lat="44.88545" lon="6.01862">
        <ele>1057.5</ele>
        <time>2026-08-08T09:15:02.766Z</time>
      </trkpt>
      <trkpt lat="44.88521" lon="6.01849">
        <ele>1055.5</ele>
        <time>2026-08-08T09:15:04.581Z</time>
      </trkpt>
      <trkpt lat="44.88499" lon="6.01834">
        <ele>1054.7</ele>
        <time>2026-08-08T09:15:06.784Z</time>
      </trkpt>
      <trkpt lat="44.88469" lon="6.01805">
        <ele>1055.8</ele>
        <time>2026-08-08T09:15:12.670Z</time>
      </trkpt>
      <trkpt lat="44.88459" lon="6.01795">
        <ele>1055</ele>
        <time>2026-08-08T09:15:13.572Z</time>
      </trkpt>
      <trkpt lat="44.88451" lon="6.01787">
        <ele>1054.4</ele>
        <time>2026-08-08T09:15:14.279Z</time>
      </trkpt>
      <trkpt lat="44.88439" lon="6.01781">
        <ele>1050.5</ele>
        <time>2026-08-08T09:15:15.176Z</time>
      </trkpt>
      <trkpt lat="44.8843" lon="6.01776">
        <ele>1047.5</ele>
        <time>2026-08-08T09:15:15.842Z</time>
      </trkpt>
      <trkpt lat="44.88422" lon="6.01765">
        <ele>1047</ele>
        <time>2026-08-08T09:15:16.784Z</time>
      </trkpt>
      <trkpt lat="44.88413" lon="6.01748">
        <ele>1049.5</ele>
        <time>2026-08-08T09:15:24.425Z</time>
      </trkpt>
      <trkpt lat="44.88404" lon="6.01731">
        <ele>1050.5</ele>
        <time>2026-08-08T09:15:28.272Z</time>
      </trkpt>
      <trkpt lat="44.88393" lon="6.01717">
        <ele>1049.9</ele>
        <time>2026-08-08T09:15:29.515Z</time>
      </trkpt>
      <trkpt lat="44.88373" lon="6.01698">
        <ele>1045.2</ele>
        <time>2026-08-08T09:15:31.195Z</time>
      </trkpt>
      <trkpt lat="44.8836" lon="6.01684">
        <ele>1042.5</ele>
        <time>2026-08-08T09:15:32.381Z</time>
      </trkpt>
      <trkpt lat="44.88358" lon="6.01679">
        <ele>1042.7</ele>
        <time>2026-08-08T09:15:33.189Z</time>
      </trkpt>
      <trkpt lat="44.88358" lon="6.01679">
        <ele>1042.6</ele>
        <time>2026-08-08T09:15:33.198Z</time>
      </trkpt>
      <trkpt lat="44.88358" lon="6.01679">
        <ele>1042.6</ele>
        <time>2026-08-08T09:15:33.218Z</time>
      </trkpt>
      <trkpt lat="44.88357" lon="6.01675">
        <ele>1042.7</ele>
        <time>2026-08-08T09:15:33.695Z</time>
      </trkpt>
      <trkpt lat="44.88351" lon="6.01663">
        <ele>1042.8</ele>
        <time>2026-08-08T09:15:35.069Z</time>
      </trkpt>
      <trkpt lat="44.88345" lon="6.0165">
        <ele>1041.9</ele>
        <time>2026-08-08T09:15:35.844Z</time>
      </trkpt>
      <trkpt lat="44.8834" lon="6.01641">
        <ele>1041</ele>
        <time>2026-08-08T09:15:36.419Z</time>
      </trkpt>
      <trkpt lat="44.88334" lon="6.01624">
        <ele>1041.5</ele>
        <time>2026-08-08T09:15:38.767Z</time>
      </trkpt>
      <trkpt lat="44.88333" lon="6.01623">
        <ele>1041.5</ele>
        <time>2026-08-08T09:15:38.919Z</time>
      </trkpt>
      <trkpt lat="44.88323" lon="6.01572">
        <ele>1041.7</ele>
        <time>2026-08-08T09:15:43.591Z</time>
      </trkpt>
      <trkpt lat="44.88309" lon="6.01511">
        <ele>1035.9</ele>
        <time>2026-08-08T09:15:46.786Z</time>
      </trkpt>
      <trkpt lat="44.88308" lon="6.01504">
        <ele>1035.1</ele>
        <time>2026-08-08T09:15:47.160Z</time>
      </trkpt>
      <trkpt lat="44.88304" lon="6.01478">
        <ele>1031.9</ele>
        <time>2026-08-08T09:15:48.513Z</time>
      </trkpt>
      <trkpt lat="44.88302" lon="6.0146">
        <ele>1030.5</ele>
        <time>2026-08-08T09:15:49.440Z</time>
      </trkpt>
      <trkpt lat="44.88302" lon="6.01446">
        <ele>1030.7</ele>
        <time>2026-08-08T09:15:50.807Z</time>
      </trkpt>
      <trkpt lat="44.88304" lon="6.01432">
        <ele>1030.9</ele>
        <time>2026-08-08T09:15:52.333Z</time>
      </trkpt>
      <trkpt lat="44.88306" lon="6.0141">
        <ele>1031.1</ele>
        <time>2026-08-08T09:15:54.383Z</time>
      </trkpt>
      <trkpt lat="44.88307" lon="6.014">
        <ele>1030.6</ele>
        <time>2026-08-08T09:15:54.906Z</time>
      </trkpt>
      <trkpt lat="44.88304" lon="6.01384">
        <ele>1028</ele>
        <time>2026-08-08T09:15:55.717Z</time>
      </trkpt>
      <trkpt lat="44.88302" lon="6.01364">
        <ele>1025.5</ele>
        <time>2026-08-08T09:15:56.731Z</time>
      </trkpt>
      <trkpt lat="44.88303" lon="6.01353">
        <ele>1025.4</ele>
        <time>2026-08-08T09:15:57.614Z</time>
      </trkpt>
      <trkpt lat="44.88304" lon="6.01331">
        <ele>1024.6</ele>
        <time>2026-08-08T09:15:58.807Z</time>
      </trkpt>
      <trkpt lat="44.88306" lon="6.01291">
        <ele>1024.4</ele>
        <time>2026-08-08T09:16:01.987Z</time>
      </trkpt>
      <trkpt lat="44.88306" lon="6.01273">
        <ele>1024.4</ele>
        <time>2026-08-08T09:16:03.495Z</time>
      </trkpt>
      <trkpt lat="44.88303" lon="6.01262">
        <ele>1023.7</ele>
        <time>2026-08-08T09:16:04.061Z</time>
      </trkpt>
      <trkpt lat="44.88295" lon="6.01244">
        <ele>1020.8</ele>
        <time>2026-08-08T09:16:05.088Z</time>
      </trkpt>
      <trkpt lat="44.88292" lon="6.0123">
        <ele>1019.6</ele>
        <time>2026-08-08T09:16:05.848Z</time>
      </trkpt>
      <trkpt lat="44.8829" lon="6.01216">
        <ele>1019</ele>
        <time>2026-08-08T09:16:06.615Z</time>
      </trkpt>
      <trkpt lat="44.88288" lon="6.01191">
        <ele>1018.7</ele>
        <time>2026-08-08T09:16:08.459Z</time>
      </trkpt>
      <trkpt lat="44.88286" lon="6.01179">
        <ele>1018.2</ele>
        <time>2026-08-08T09:16:09.083Z</time>
      </trkpt>
      <trkpt lat="44.88283" lon="6.01168">
        <ele>1016.7</ele>
        <time>2026-08-08T09:16:09.657Z</time>
      </trkpt>
      <trkpt lat="44.88272" lon="6.01144">
        <ele>1012.9</ele>
        <time>2026-08-08T09:16:11.085Z</time>
      </trkpt>
      <trkpt lat="44.88267" lon="6.01137">
        <ele>1011.7</ele>
        <time>2026-08-08T09:16:11.583Z</time>
      </trkpt>
      <trkpt lat="44.88264" lon="6.01135">
        <ele>1010.7</ele>
        <time>2026-08-08T09:16:11.866Z</time>
      </trkpt>
      <trkpt lat="44.88259" lon="6.01135">
        <ele>1009.2</ele>
        <time>2026-08-08T09:16:12.185Z</time>
      </trkpt>
      <trkpt lat="44.88255" lon="6.01137">
        <ele>1007.8</ele>
        <time>2026-08-08T09:16:12.503Z</time>
      </trkpt>
      <trkpt lat="44.88253" lon="6.01145">
        <ele>1006.6</ele>
        <time>2026-08-08T09:16:12.906Z</time>
      </trkpt>
      <trkpt lat="44.88254" lon="6.01152">
        <ele>1006.3</ele>
        <time>2026-08-08T09:16:13.303Z</time>
      </trkpt>
      <trkpt lat="44.88257" lon="6.01162">
        <ele>1006.7</ele>
        <time>2026-08-08T09:16:14.896Z</time>
      </trkpt>
      <trkpt lat="44.88262" lon="6.01179">
        <ele>1007.7</ele>
        <time>2026-08-08T09:16:18.728Z</time>
      </trkpt>
      <trkpt lat="44.88265" lon="6.01194">
        <ele>1008</ele>
        <time>2026-08-08T09:16:20.474Z</time>
      </trkpt>
      <trkpt lat="44.88266" lon="6.01215">
        <ele>1007.1</ele>
        <time>2026-08-08T09:16:21.593Z</time>
      </trkpt>
      <trkpt lat="44.88262" lon="6.01248">
        <ele>1003.7</ele>
        <time>2026-08-08T09:16:23.236Z</time>
      </trkpt>
      <trkpt lat="44.88258" lon="6.01302">
        <ele>997</ele>
        <time>2026-08-08T09:16:25.984Z</time>
      </trkpt>
      <trkpt lat="44.88256" lon="6.01323">
        <ele>994.8</ele>
        <time>2026-08-08T09:16:27.066Z</time>
      </trkpt>
      <trkpt lat="44.88253" lon="6.01341">
        <ele>993</ele>
        <time>2026-08-08T09:16:27.952Z</time>
      </trkpt>
      <trkpt lat="44.8825" lon="6.01354">
        <ele>991.6</ele>
        <time>2026-08-08T09:16:28.682Z</time>
      </trkpt>
      <trkpt lat="44.88234" lon="6.01413">
        <ele>987.4</ele>
        <time>2026-08-08T09:16:31.812Z</time>
      </trkpt>
      <trkpt lat="44.88225" lon="6.01448">
        <ele>983.7</ele>
        <time>2026-08-08T09:16:33.673Z</time>
      </trkpt>
      <trkpt lat="44.88224" lon="6.01455">
        <ele>983</ele>
        <time>2026-08-08T09:16:34.073Z</time>
      </trkpt>
      <trkpt lat="44.88218" lon="6.01474">
        <ele>981.7</ele>
        <time>2026-08-08T09:16:35.085Z</time>
      </trkpt>
      <trkpt lat="44.88203" lon="6.01504">
        <ele>977.2</ele>
        <time>2026-08-08T09:16:36.949Z</time>
      </trkpt>
      <trkpt lat="44.88196" lon="6.01528">
        <ele>975.5</ele>
        <time>2026-08-08T09:16:38.259Z</time>
      </trkpt>
      <trkpt lat="44.88194" lon="6.01539">
        <ele>975</ele>
        <time>2026-08-08T09:16:38.831Z</time>
      </trkpt>
      <trkpt lat="44.88192" lon="6.01548">
        <ele>974.6</ele>
        <time>2026-08-08T09:16:39.341Z</time>
      </trkpt>
      <trkpt lat="44.88188" lon="6.01551">
        <ele>973.9</ele>
        <time>2026-08-08T09:16:39.642Z</time>
      </trkpt>
      <trkpt lat="44.88184" lon="6.01555">
        <ele>973.2</ele>
        <time>2026-08-08T09:16:39.986Z</time>
      </trkpt>
      <trkpt lat="44.88181" lon="6.01546">
        <ele>972.6</ele>
        <time>2026-08-08T09:16:40.507Z</time>
      </trkpt>
      <trkpt lat="44.88181" lon="6.01542">
        <ele>972.5</ele>
        <time>2026-08-08T09:16:40.742Z</time>
      </trkpt>
      <trkpt lat="44.88184" lon="6.01535">
        <ele>973.1</ele>
        <time>2026-08-08T09:16:43.138Z</time>
      </trkpt>
      <trkpt lat="44.88188" lon="6.0152">
        <ele>973.6</ele>
        <time>2026-08-08T09:16:45.282Z</time>
      </trkpt>
      <trkpt lat="44.88192" lon="6.01486">
        <ele>973.6</ele>
        <time>2026-08-08T09:16:48.192Z</time>
      </trkpt>
      <trkpt lat="44.88193" lon="6.01471">
        <ele>973.6</ele>
        <time>2026-08-08T09:16:49.424Z</time>
      </trkpt>
      <trkpt lat="44.88191" lon="6.01454">
        <ele>972.8</ele>
        <time>2026-08-08T09:16:50.288Z</time>
      </trkpt>
      <trkpt lat="44.88187" lon="6.01436">
        <ele>972.3</ele>
        <time>2026-08-08T09:16:51.446Z</time>
      </trkpt>
      <trkpt lat="44.8818" lon="6.01415">
        <ele>972</ele>
        <time>2026-08-08T09:16:53.118Z</time>
      </trkpt>
      <trkpt lat="44.88152" lon="6.01345">
        <ele>970.9</ele>
        <time>2026-08-08T09:16:58.795Z</time>
      </trkpt>
      <trkpt lat="44.88141" lon="6.01317">
        <ele>969.9</ele>
        <time>2026-08-08T09:17:00.662Z</time>
      </trkpt>
      <trkpt lat="44.8813" lon="6.01295">
        <ele>969.4</ele>
        <time>2026-08-08T09:17:02.462Z</time>
      </trkpt>
      <trkpt lat="44.88098" lon="6.01233">
        <ele>968.1</ele>
        <time>2026-08-08T09:17:07.665Z</time>
      </trkpt>
      <trkpt lat="44.8809" lon="6.01216">
        <ele>967.5</ele>
        <time>2026-08-08T09:17:08.831Z</time>
      </trkpt>
      <trkpt lat="44.88084" lon="6.01195">
        <ele>967.2</ele>
        <time>2026-08-08T09:17:10.457Z</time>
      </trkpt>
      <trkpt lat="44.88083" lon="6.0119">
        <ele>967.1</ele>
        <time>2026-08-08T09:17:10.841Z</time>
      </trkpt>
      <trkpt lat="44.88071" lon="6.01139">
        <ele>965.8</ele>
        <time>2026-08-08T09:17:14.213Z</time>
      </trkpt>
      <trkpt lat="44.88068" lon="6.01118">
        <ele>965.2</ele>
        <time>2026-08-08T09:17:15.420Z</time>
      </trkpt>
      <trkpt lat="44.88064" lon="6.01062">
        <ele>964.9</ele>
        <time>2026-08-08T09:17:19.854Z</time>
      </trkpt>
      <trkpt lat="44.88062" lon="6.01033">
        <ele>965.4</ele>
        <time>2026-08-08T09:17:22.999Z</time>
      </trkpt>
      <trkpt lat="44.88058" lon="6.00987">
        <ele>965.6</ele>
        <time>2026-08-08T09:17:27.119Z</time>
      </trkpt>
      <trkpt lat="44.88057" lon="6.00957">
        <ele>965.3</ele>
        <time>2026-08-08T09:17:29.342Z</time>
      </trkpt>
      <trkpt lat="44.88058" lon="6.0094">
        <ele>965.2</ele>
        <time>2026-08-08T09:17:30.630Z</time>
      </trkpt>
      <trkpt lat="44.88061" lon="6.00922">
        <ele>965</ele>
        <time>2026-08-08T09:17:31.941Z</time>
      </trkpt>
      <trkpt lat="44.88069" lon="6.00899">
        <ele>964.6</ele>
        <time>2026-08-08T09:17:33.755Z</time>
      </trkpt>
      <trkpt lat="44.88084" lon="6.00863">
        <ele>964.3</ele>
        <time>2026-08-08T09:17:36.990Z</time>
      </trkpt>
      <trkpt lat="44.88105" lon="6.00822">
        <ele>963.7</ele>
        <time>2026-08-08T09:17:40.619Z</time>
      </trkpt>
      <trkpt lat="44.88116" lon="6.00803">
        <ele>963.7</ele>
        <time>2026-08-08T09:17:42.634Z</time>
      </trkpt>
      <trkpt lat="44.88143" lon="6.00765">
        <ele>964.1</ele>
        <time>2026-08-08T09:17:47.596Z</time>
      </trkpt>
      <trkpt lat="44.88154" lon="6.00752">
        <ele>963.9</ele>
        <time>2026-08-08T09:17:49.111Z</time>
      </trkpt>
      <trkpt lat="44.88163" lon="6.00742">
        <ele>963.5</ele>
        <time>2026-08-08T09:17:50.162Z</time>
      </trkpt>
      <trkpt lat="44.88172" lon="6.00734">
        <ele>963.2</ele>
        <time>2026-08-08T09:17:51.067Z</time>
      </trkpt>
      <trkpt lat="44.88197" lon="6.00716">
        <ele>963.1</ele>
        <time>2026-08-08T09:17:54.369Z</time>
      </trkpt>
      <trkpt lat="44.88206" lon="6.0071">
        <ele>962.5</ele>
        <time>2026-08-08T09:17:55.083Z</time>
      </trkpt>
      <trkpt lat="44.88214" lon="6.00702">
        <ele>962</ele>
        <time>2026-08-08T09:17:55.842Z</time>
      </trkpt>
      <trkpt lat="44.8822" lon="6.00694">
        <ele>961.6</ele>
        <time>2026-08-08T09:17:56.506Z</time>
      </trkpt>
      <trkpt lat="44.88228" lon="6.00679">
        <ele>961.3</ele>
        <time>2026-08-08T09:17:57.740Z</time>
      </trkpt>
      <trkpt lat="44.88237" lon="6.00659">
        <ele>961.3</ele>
        <time>2026-08-08T09:17:59.759Z</time>
      </trkpt>
      <trkpt lat="44.88241" lon="6.00647">
        <ele>961.2</ele>
        <time>2026-08-08T09:18:00.771Z</time>
      </trkpt>
      <trkpt lat="44.88244" lon="6.0063">
        <ele>960</ele>
        <time>2026-08-08T09:18:01.653Z</time>
      </trkpt>
      <trkpt lat="44.88246" lon="6.00619">
        <ele>958.9</ele>
        <time>2026-08-08T09:18:02.222Z</time>
      </trkpt>
      <trkpt lat="44.88253" lon="6.00539">
        <ele>954.3</ele>
        <time>2026-08-08T09:18:06.278Z</time>
      </trkpt>
      <trkpt lat="44.88258" lon="6.00474">
        <ele>954.8</ele>
        <time>2026-08-08T09:18:12.339Z</time>
      </trkpt>
      <trkpt lat="44.8826" lon="6.00439">
        <ele>955.8</ele>
        <time>2026-08-08T09:18:16.896Z</time>
      </trkpt>
      <trkpt lat="44.88259" lon="6.00425">
        <ele>956.3</ele>
        <time>2026-08-08T09:18:18.957Z</time>
      </trkpt>
      <trkpt lat="44.88257" lon="6.00409">
        <ele>956.3</ele>
        <time>2026-08-08T09:18:20.283Z</time>
      </trkpt>
      <trkpt lat="44.88254" lon="6.00396">
        <ele>955.9</ele>
        <time>2026-08-08T09:18:21.105Z</time>
      </trkpt>
      <trkpt lat="44.88249" lon="6.00383">
        <ele>955.4</ele>
        <time>2026-08-08T09:18:21.944Z</time>
      </trkpt>
      <trkpt lat="44.8824" lon="6.00365">
        <ele>955</ele>
        <time>2026-08-08T09:18:23.451Z</time>
      </trkpt>
      <trkpt lat="44.8823" lon="6.00351">
        <ele>953.9</ele>
        <time>2026-08-08T09:18:24.427Z</time>
      </trkpt>
      <trkpt lat="44.88216" lon="6.00336">
        <ele>952.6</ele>
        <time>2026-08-08T09:18:25.663Z</time>
      </trkpt>
      <trkpt lat="44.88208" lon="6.00325">
        <ele>952</ele>
        <time>2026-08-08T09:18:26.530Z</time>
      </trkpt>
      <trkpt lat="44.88201" lon="6.00314">
        <ele>951.6</ele>
        <time>2026-08-08T09:18:27.432Z</time>
      </trkpt>
      <trkpt lat="44.88188" lon="6.00286">
        <ele>951.2</ele>
        <time>2026-08-08T09:18:29.838Z</time>
      </trkpt>
      <trkpt lat="44.88181" lon="6.00272">
        <ele>951.3</ele>
        <time>2026-08-08T09:18:31.363Z</time>
      </trkpt>
      <trkpt lat="44.88173" lon="6.00253">
        <ele>951.7</ele>
        <time>2026-08-08T09:18:33.799Z</time>
      </trkpt>
      <trkpt lat="44.88153" lon="6.00217">
        <ele>950.8</ele>
        <time>2026-08-08T09:18:36.852Z</time>
      </trkpt>
      <trkpt lat="44.88142" lon="6.00189">
        <ele>949.8</ele>
        <time>2026-08-08T09:18:38.679Z</time>
      </trkpt>
      <trkpt lat="44.88137" lon="6.00168">
        <ele>949.4</ele>
        <time>2026-08-08T09:18:40.186Z</time>
      </trkpt>
      <trkpt lat="44.88135" lon="6.00146">
        <ele>949</ele>
        <time>2026-08-08T09:18:41.671Z</time>
      </trkpt>
      <trkpt lat="44.88133" lon="5.99975">
        <ele>944</ele>
        <time>2026-08-08T09:18:51.823Z</time>
      </trkpt>
      <trkpt lat="44.88136" lon="5.99946">
        <ele>942.5</ele>
        <time>2026-08-08T09:18:53.270Z</time>
      </trkpt>
      <trkpt lat="44.88142" lon="5.99921">
        <ele>941.9</ele>
        <time>2026-08-08T09:18:54.998Z</time>
      </trkpt>
      <trkpt lat="44.88158" lon="5.99866">
        <ele>942.3</ele>
        <time>2026-08-08T09:19:00.467Z</time>
      </trkpt>
      <trkpt lat="44.88199" lon="5.99746">
        <ele>940.8</ele>
        <time>2026-08-08T09:19:10.052Z</time>
      </trkpt>
      <trkpt lat="44.88206" lon="5.99717">
        <ele>940.8</ele>
        <time>2026-08-08T09:19:12.637Z</time>
      </trkpt>
      <trkpt lat="44.8821" lon="5.99701">
        <ele>941.5</ele>
        <time>2026-08-08T09:19:15.396Z</time>
      </trkpt>
      <trkpt lat="44.88206" lon="5.99657">
        <ele>940.9</ele>
        <time>2026-08-08T09:19:18.580Z</time>
      </trkpt>
      <trkpt lat="44.88205" lon="5.99649">
        <ele>940.8</ele>
        <time>2026-08-08T09:19:19.114Z</time>
      </trkpt>
      <trkpt lat="44.88203" lon="5.99619">
        <ele>940.2</ele>
        <time>2026-08-08T09:19:21.130Z</time>
      </trkpt>
      <trkpt lat="44.88195" lon="5.99524">
        <ele>937.2</ele>
        <time>2026-08-08T09:19:26.632Z</time>
      </trkpt>
      <trkpt lat="44.88183" lon="5.99403">
        <ele>936.6</ele>
        <time>2026-08-08T09:19:36.290Z</time>
      </trkpt>
      <trkpt lat="44.88173" lon="5.99359">
        <ele>934.2</ele>
        <time>2026-08-08T09:19:38.604Z</time>
      </trkpt>
      <trkpt lat="44.8816" lon="5.99325">
        <ele>932.5</ele>
        <time>2026-08-08T09:19:40.577Z</time>
      </trkpt>
      <trkpt lat="44.88145" lon="5.99291">
        <ele>931.1</ele>
        <time>2026-08-08T09:19:42.859Z</time>
      </trkpt>
      <trkpt lat="44.88127" lon="5.99229">
        <ele>928.4</ele>
        <time>2026-08-08T09:19:46.455Z</time>
      </trkpt>
      <trkpt lat="44.88109" lon="5.98919">
        <ele>920.5</ele>
        <time>2026-08-08T09:20:05.646Z</time>
      </trkpt>
      <trkpt lat="44.8811" lon="5.98581">
        <ele>917.9</ele>
        <time>2026-08-08T09:20:31.261Z</time>
      </trkpt>
      <trkpt lat="44.8811" lon="5.9851">
        <ele>916.8</ele>
        <time>2026-08-08T09:20:36.160Z</time>
      </trkpt>
      <trkpt lat="44.88129" lon="5.9841">
        <ele>920</ele>
        <time>2026-08-08T09:20:50.138Z</time>
      </trkpt>
      <trkpt lat="44.88187" lon="5.98101">
        <ele>916.5</ele>
        <time>2026-08-08T09:21:13.387Z</time>
      </trkpt>
      <trkpt lat="44.88186" lon="5.98039">
        <ele>914.1</ele>
        <time>2026-08-08T09:21:16.779Z</time>
      </trkpt>
      <trkpt lat="44.88178" lon="5.97995">
        <ele>911.4</ele>
        <time>2026-08-08T09:21:19.041Z</time>
      </trkpt>
      <trkpt lat="44.88163" lon="5.97957">
        <ele>908.5</ele>
        <time>2026-08-08T09:21:21.233Z</time>
      </trkpt>
      <trkpt lat="44.88162" lon="5.97954">
        <ele>908.4</ele>
        <time>2026-08-08T09:21:21.449Z</time>
      </trkpt>
      <trkpt lat="44.8816" lon="5.97947">
        <ele>908.3</ele>
        <time>2026-08-08T09:21:21.964Z</time>
      </trkpt>
      <trkpt lat="44.88159" lon="5.97931">
        <ele>908.5</ele>
        <time>2026-08-08T09:21:23.525Z</time>
      </trkpt>
      <trkpt lat="44.8816" lon="5.97918">
        <ele>908.7</ele>
        <time>2026-08-08T09:21:24.916Z</time>
      </trkpt>
      <trkpt lat="44.88162" lon="5.97905">
        <ele>909.4</ele>
        <time>2026-08-08T09:21:27.598Z</time>
      </trkpt>
      <trkpt lat="44.88171" lon="5.97884">
        <ele>910.2</ele>
        <time>2026-08-08T09:21:30.968Z</time>
      </trkpt>
      <trkpt lat="44.88247" lon="5.9776">
        <ele>906.7</ele>
        <time>2026-08-08T09:21:41.570Z</time>
      </trkpt>
      <trkpt lat="44.88264" lon="5.97736">
        <ele>906.5</ele>
        <time>2026-08-08T09:21:44.240Z</time>
      </trkpt>
      <trkpt lat="44.88284" lon="5.97721">
        <ele>905.5</ele>
        <time>2026-08-08T09:21:46.077Z</time>
      </trkpt>
      <trkpt lat="44.88307" lon="5.97708">
        <ele>903.9</ele>
        <time>2026-08-08T09:21:47.851Z</time>
      </trkpt>
      <trkpt lat="44.88317" lon="5.97698">
        <ele>903.6</ele>
        <time>2026-08-08T09:21:49.043Z</time>
      </trkpt>
      <trkpt lat="44.88324" lon="5.97688">
        <ele>903.6</ele>
        <time>2026-08-08T09:21:50.177Z</time>
      </trkpt>
      <trkpt lat="44.88337" lon="5.97663">
        <ele>903.8</ele>
        <time>2026-08-08T09:21:52.989Z</time>
      </trkpt>
      <trkpt lat="44.88361" lon="5.97612">
        <ele>902.9</ele>
        <time>2026-08-08T09:21:57.303Z</time>
      </trkpt>
      <trkpt lat="44.88415" lon="5.97503">
        <ele>905.6</ele>
        <time>2026-08-08T09:22:12.340Z</time>
      </trkpt>
      <trkpt lat="44.8842" lon="5.9749">
        <ele>906.1</ele>
        <time>2026-08-08T09:22:14.409Z</time>
      </trkpt>
      <trkpt lat="44.88422" lon="5.97471">
        <ele>907.3</ele>
        <time>2026-08-08T09:22:19.087Z</time>
      </trkpt>
      <trkpt lat="44.88422" lon="5.97462">
        <ele>907.6</ele>
        <time>2026-08-08T09:22:20.384Z</time>
      </trkpt>
      <trkpt lat="44.88413" lon="5.97402">
        <ele>909.7</ele>
        <time>2026-08-08T09:22:29.132Z</time>
      </trkpt>
      <trkpt lat="44.88413" lon="5.97398">
        <ele>909.8</ele>
        <time>2026-08-08T09:22:29.617Z</time>
      </trkpt>
      <trkpt lat="44.88407" lon="5.97337">
        <ele>910.5</ele>
        <time>2026-08-08T09:22:35.704Z</time>
      </trkpt>
      <trkpt lat="44.88407" lon="5.97299">
        <ele>910.5</ele>
        <time>2026-08-08T09:22:38.835Z</time>
      </trkpt>
      <trkpt lat="44.88426" lon="5.97244">
        <ele>906.8</ele>
        <time>2026-08-08T09:22:41.913Z</time>
      </trkpt>
      <trkpt lat="44.88432" lon="5.97193">
        <ele>905.5</ele>
        <time>2026-08-08T09:22:45.113Z</time>
      </trkpt>
      <trkpt lat="44.88433" lon="5.97171">
        <ele>905.5</ele>
        <time>2026-08-08T09:22:46.964Z</time>
      </trkpt>
      <trkpt lat="44.88435" lon="5.97071">
        <ele>902.6</ele>
        <time>2026-08-08T09:22:52.914Z</time>
      </trkpt>
      <trkpt lat="44.88442" lon="5.96973">
        <ele>898.4</ele>
        <time>2026-08-08T09:22:58.101Z</time>
      </trkpt>
      <trkpt lat="44.88444" lon="5.96961">
        <ele>898.5</ele>
        <time>2026-08-08T09:22:59.214Z</time>
      </trkpt>
      <trkpt lat="44.88446" lon="5.96953">
        <ele>898.5</ele>
        <time>2026-08-08T09:22:59.983Z</time>
      </trkpt>
      <trkpt lat="44.8845" lon="5.96944">
        <ele>898.3</ele>
        <time>2026-08-08T09:23:00.708Z</time>
      </trkpt>
      <trkpt lat="44.88456" lon="5.96935">
        <ele>898.3</ele>
        <time>2026-08-08T09:23:01.691Z</time>
      </trkpt>
      <trkpt lat="44.88465" lon="5.96921">
        <ele>897.9</ele>
        <time>2026-08-08T09:23:02.974Z</time>
      </trkpt>
      <trkpt lat="44.88485" lon="5.96906">
        <ele>896.2</ele>
        <time>2026-08-08T09:23:04.539Z</time>
      </trkpt>
      <trkpt lat="44.88538" lon="5.96869">
        <ele>891.8</ele>
        <time>2026-08-08T09:23:08.734Z</time>
      </trkpt>
      <trkpt lat="44.88546" lon="5.96864">
        <ele>891.6</ele>
        <time>2026-08-08T09:23:09.587Z</time>
      </trkpt>
      <trkpt lat="44.88655" lon="5.96798">
        <ele>889.4</ele>
        <time>2026-08-08T09:23:21.514Z</time>
      </trkpt>
      <trkpt lat="44.88661" lon="5.96794">
        <ele>889.2</ele>
        <time>2026-08-08T09:23:22.044Z</time>
      </trkpt>
      <trkpt lat="44.88666" lon="5.96791">
        <ele>889.1</ele>
        <time>2026-08-08T09:23:22.627Z</time>
      </trkpt>
      <trkpt lat="44.88788" lon="5.96718">
        <ele>886.3</ele>
        <time>2026-08-08T09:23:35.591Z</time>
      </trkpt>
      <trkpt lat="44.88799" lon="5.96707">
        <ele>885.3</ele>
        <time>2026-08-08T09:23:36.564Z</time>
      </trkpt>
      <trkpt lat="44.88814" lon="5.96687">
        <ele>884.1</ele>
        <time>2026-08-08T09:23:38.061Z</time>
      </trkpt>
      <trkpt lat="44.8885" lon="5.96652">
        <ele>880.2</ele>
        <time>2026-08-08T09:23:41.154Z</time>
      </trkpt>
      <trkpt lat="44.88872" lon="5.96641">
        <ele>881.5</ele>
        <time>2026-08-08T09:23:46.359Z</time>
      </trkpt>
      <trkpt lat="44.88903" lon="5.96617">
        <ele>889.8</ele>
        <time>2026-08-08T09:24:04.015Z</time>
      </trkpt>
      <trkpt lat="44.8891" lon="5.96598">
        <ele>889.7</ele>
        <time>2026-08-08T09:24:05.712Z</time>
      </trkpt>
      <trkpt lat="44.88924" lon="5.96569">
        <ele>893.2</ele>
        <time>2026-08-08T09:24:18.314Z</time>
      </trkpt>
      <trkpt lat="44.88932" lon="5.96531">
        <ele>891.1</ele>
        <time>2026-08-08T09:24:20.287Z</time>
      </trkpt>
      <trkpt lat="44.88941" lon="5.96482">
        <ele>884.1</ele>
        <time>2026-08-08T09:24:22.854Z</time>
      </trkpt>
      <trkpt lat="44.88949" lon="5.96465">
        <ele>885.5</ele>
        <time>2026-08-08T09:24:28.375Z</time>
      </trkpt>
      <trkpt lat="44.8896" lon="5.96427">
        <ele>886.9</ele>
        <time>2026-08-08T09:24:34.229Z</time>
      </trkpt>
      <trkpt lat="44.88979" lon="5.96352">
        <ele>878.8</ele>
        <time>2026-08-08T09:24:38.191Z</time>
      </trkpt>
      <trkpt lat="44.88996" lon="5.9631">
        <ele>877.1</ele>
        <time>2026-08-08T09:24:40.938Z</time>
      </trkpt>
      <trkpt lat="44.89035" lon="5.96227">
        <ele>876.2</ele>
        <time>2026-08-08T09:24:48.333Z</time>
      </trkpt>
      <trkpt lat="44.89045" lon="5.96201">
        <ele>877.8</ele>
        <time>2026-08-08T09:24:54.469Z</time>
      </trkpt>
      <trkpt lat="44.89056" lon="5.96177">
        <ele>879.4</ele>
        <time>2026-08-08T09:25:00.613Z</time>
      </trkpt>
      <trkpt lat="44.89072" lon="5.96148">
        <ele>880.9</ele>
        <time>2026-08-08T09:25:06.541Z</time>
      </trkpt>
      <trkpt lat="44.89083" lon="5.96111">
        <ele>878</ele>
        <time>2026-08-08T09:25:08.530Z</time>
      </trkpt>
      <trkpt lat="44.89089" lon="5.96082">
        <ele>875.2</ele>
        <time>2026-08-08T09:25:10.040Z</time>
      </trkpt>
      <trkpt lat="44.89094" lon="5.96049">
        <ele>872.5</ele>
        <time>2026-08-08T09:25:11.752Z</time>
      </trkpt>
      <trkpt lat="44.891" lon="5.96031">
        <ele>871.3</ele>
        <time>2026-08-08T09:25:12.767Z</time>
      </trkpt>
      <trkpt lat="44.89112" lon="5.96009">
        <ele>871</ele>
        <time>2026-08-08T09:25:14.806Z</time>
      </trkpt>
      <trkpt lat="44.89124" lon="5.95993">
        <ele>871.5</ele>
        <time>2026-08-08T09:25:17.442Z</time>
      </trkpt>
      <trkpt lat="44.89151" lon="5.95961">
        <ele>873.2</ele>
        <time>2026-08-08T09:25:24.535Z</time>
      </trkpt>
      <trkpt lat="44.89165" lon="5.9593">
        <ele>871.1</ele>
        <time>2026-08-08T09:25:26.363Z</time>
      </trkpt>
      <trkpt lat="44.89174" lon="5.95894">
        <ele>868.2</ele>
        <time>2026-08-08T09:25:28.307Z</time>
      </trkpt>
      <trkpt lat="44.89183" lon="5.95836">
        <ele>862.2</ele>
        <time>2026-08-08T09:25:31.277Z</time>
      </trkpt>
      <trkpt lat="44.89199" lon="5.95752">
        <ele>856.7</ele>
        <time>2026-08-08T09:25:35.665Z</time>
      </trkpt>
      <trkpt lat="44.89207" lon="5.95738">
        <ele>858.6</ele>
        <time>2026-08-08T09:25:41.919Z</time>
      </trkpt>
      <trkpt lat="44.89218" lon="5.95721">
        <ele>861.3</ele>
        <time>2026-08-08T09:25:50.160Z</time>
      </trkpt>
      <trkpt lat="44.89229" lon="5.95701">
        <ele>862.7</ele>
        <time>2026-08-08T09:25:55.533Z</time>
      </trkpt>
      <trkpt lat="44.89245" lon="5.95634">
        <ele>854.8</ele>
        <time>2026-08-08T09:25:59.116Z</time>
      </trkpt>
      <trkpt lat="44.8926" lon="5.9558">
        <ele>848.4</ele>
        <time>2026-08-08T09:26:02.029Z</time>
      </trkpt>
      <trkpt lat="44.89272" lon="5.95565">
        <ele>848.2</ele>
        <time>2026-08-08T09:26:03.740Z</time>
      </trkpt>
      <trkpt lat="44.89319" lon="5.95537">
        <ele>848.8</ele>
        <time>2026-08-08T09:26:10.412Z</time>
      </trkpt>
      <trkpt lat="44.89354" lon="5.95519">
        <ele>846.1</ele>
        <time>2026-08-08T09:26:13.101Z</time>
      </trkpt>
      <trkpt lat="44.89387" lon="5.95524">
        <ele>848.8</ele>
        <time>2026-08-08T09:26:23.499Z</time>
      </trkpt>
      <trkpt lat="44.89398" lon="5.9552">
        <ele>847.7</ele>
        <time>2026-08-08T09:26:24.293Z</time>
      </trkpt>
      <trkpt lat="44.89426" lon="5.95511">
        <ele>846</ele>
        <time>2026-08-08T09:26:26.428Z</time>
      </trkpt>
      <trkpt lat="44.89457" lon="5.95491">
        <ele>842.2</ele>
        <time>2026-08-08T09:26:28.801Z</time>
      </trkpt>
      <trkpt lat="44.89468" lon="5.95484">
        <ele>840.7</ele>
        <time>2026-08-08T09:26:29.680Z</time>
      </trkpt>
      <trkpt lat="44.89522" lon="5.95445">
        <ele>835</ele>
        <time>2026-08-08T09:26:33.958Z</time>
      </trkpt>
      <trkpt lat="44.89549" lon="5.95423">
        <ele>831.2</ele>
        <time>2026-08-08T09:26:36.198Z</time>
      </trkpt>
      <trkpt lat="44.89571" lon="5.95409">
        <ele>828.7</ele>
        <time>2026-08-08T09:26:37.926Z</time>
      </trkpt>
      <trkpt lat="44.89597" lon="5.95402">
        <ele>827.8</ele>
        <time>2026-08-08T09:26:40.221Z</time>
      </trkpt>
      <trkpt lat="44.89654" lon="5.95418">
        <ele>835.7</ele>
        <time>2026-08-08T09:27:09.813Z</time>
      </trkpt>
      <trkpt lat="44.89687" lon="5.95423">
        <ele>840.6</ele>
        <time>2026-08-08T09:27:26.615Z</time>
      </trkpt>
      <trkpt lat="44.89707" lon="5.95416">
        <ele>841</ele>
        <time>2026-08-08T09:27:29.535Z</time>
      </trkpt>
      <trkpt lat="44.89725" lon="5.95396">
        <ele>837.1</ele>
        <time>2026-08-08T09:27:31.174Z</time>
      </trkpt>
      <trkpt lat="44.8974" lon="5.95378">
        <ele>835.7</ele>
        <time>2026-08-08T09:27:32.584Z</time>
      </trkpt>
      <trkpt lat="44.89772" lon="5.95316">
        <ele>826.9</ele>
        <time>2026-08-08T09:27:36.428Z</time>
      </trkpt>
      <trkpt lat="44.89807" lon="5.95257">
        <ele>819.4</ele>
        <time>2026-08-08T09:27:40.288Z</time>
      </trkpt>
      <trkpt lat="44.89818" lon="5.95241">
        <ele>817.2</ele>
        <time>2026-08-08T09:27:41.436Z</time>
      </trkpt>
      <trkpt lat="44.89836" lon="5.95229">
        <ele>817</ele>
        <time>2026-08-08T09:27:43.527Z</time>
      </trkpt>
      <trkpt lat="44.89855" lon="5.9522">
        <ele>816.9</ele>
        <time>2026-08-08T09:27:45.815Z</time>
      </trkpt>
      <trkpt lat="44.89872" lon="5.95218">
        <ele>818.3</ele>
        <time>2026-08-08T09:27:51.233Z</time>
      </trkpt>
      <trkpt lat="44.89884" lon="5.9522">
        <ele>820</ele>
        <time>2026-08-08T09:27:57.398Z</time>
      </trkpt>
      <trkpt lat="44.89891" lon="5.9522">
        <ele>820.8</ele>
        <time>2026-08-08T09:28:00.617Z</time>
      </trkpt>
      <trkpt lat="44.89901" lon="5.95219">
        <ele>821.6</ele>
        <time>2026-08-08T09:28:03.702Z</time>
      </trkpt>
      <trkpt lat="44.89913" lon="5.95207">
        <ele>820.7</ele>
        <time>2026-08-08T09:28:04.768Z</time>
      </trkpt>
      <trkpt lat="44.89915" lon="5.95201">
        <ele>820.1</ele>
        <time>2026-08-08T09:28:05.072Z</time>
      </trkpt>
      <trkpt lat="44.89918" lon="5.95187">
        <ele>817.9</ele>
        <time>2026-08-08T09:28:05.803Z</time>
      </trkpt>
      <trkpt lat="44.89917" lon="5.95166">
        <ele>814</ele>
        <time>2026-08-08T09:28:06.889Z</time>
      </trkpt>
      <trkpt lat="44.89919" lon="5.9515">
        <ele>811.9</ele>
        <time>2026-08-08T09:28:07.677Z</time>
      </trkpt>
      <trkpt lat="44.89923" lon="5.95139">
        <ele>811</ele>
        <time>2026-08-08T09:28:08.326Z</time>
      </trkpt>
      <trkpt lat="44.89928" lon="5.95131">
        <ele>810</ele>
        <time>2026-08-08T09:28:08.882Z</time>
      </trkpt>
      <trkpt lat="44.89963" lon="5.95096">
        <ele>809.2</ele>
        <time>2026-08-08T09:28:13.175Z</time>
      </trkpt>
      <trkpt lat="44.89982" lon="5.95076">
        <ele>809.5</ele>
        <time>2026-08-08T09:28:16.330Z</time>
      </trkpt>
      <trkpt lat="44.90014" lon="5.95049">
        <ele>809.4</ele>
        <time>2026-08-08T09:28:20.541Z</time>
      </trkpt>
      <trkpt lat="44.90034" lon="5.95026">
        <ele>808.1</ele>
        <time>2026-08-08T09:28:22.618Z</time>
      </trkpt>
      <trkpt lat="44.90037" lon="5.95022">
        <ele>807.5</ele>
        <time>2026-08-08T09:28:22.914Z</time>
      </trkpt>
      <trkpt lat="44.90048" lon="5.95005">
        <ele>806</ele>
        <time>2026-08-08T09:28:24.088Z</time>
      </trkpt>
      <trkpt lat="44.90069" lon="5.94968">
        <ele>802.4</ele>
        <time>2026-08-08T09:28:26.427Z</time>
      </trkpt>
      <trkpt lat="44.90074" lon="5.94965">
        <ele>803.1</ele>
        <time>2026-08-08T09:28:29.258Z</time>
      </trkpt>
      <trkpt lat="44.90078" lon="5.94963">
        <ele>803.6</ele>
        <time>2026-08-08T09:28:31.132Z</time>
      </trkpt>
      <trkpt lat="44.901" lon="5.9495">
        <ele>805.3</ele>
        <time>2026-08-08T09:28:37.655Z</time>
      </trkpt>
      <trkpt lat="44.90104" lon="5.94947">
        <ele>805.7</ele>
        <time>2026-08-08T09:28:39.265Z</time>
      </trkpt>
      <trkpt lat="44.90125" lon="5.94934">
        <ele>807</ele>
        <time>2026-08-08T09:28:44.428Z</time>
      </trkpt>
      <trkpt lat="44.90136" lon="5.94926">
        <ele>807.9</ele>
        <time>2026-08-08T09:28:47.876Z</time>
      </trkpt>
      <trkpt lat="44.9014" lon="5.94923">
        <ele>808.2</ele>
        <time>2026-08-08T09:28:49.028Z</time>
      </trkpt>
      <trkpt lat="44.90143" lon="5.94916">
        <ele>807.9</ele>
        <time>2026-08-08T09:28:49.546Z</time>
      </trkpt>
      <trkpt lat="44.90143" lon="5.94915">
        <ele>807.9</ele>
        <time>2026-08-08T09:28:49.582Z</time>
      </trkpt>
      <trkpt lat="44.90147" lon="5.94897">
        <ele>807</ele>
        <time>2026-08-08T09:28:50.533Z</time>
      </trkpt>
      <trkpt lat="44.90145" lon="5.94879">
        <ele>805.9</ele>
        <time>2026-08-08T09:28:51.428Z</time>
      </trkpt>
      <trkpt lat="44.90147" lon="5.94867">
        <ele>805.3</ele>
        <time>2026-08-08T09:28:52.034Z</time>
      </trkpt>
      <trkpt lat="44.9015" lon="5.9485">
        <ele>804.7</ele>
        <time>2026-08-08T09:28:53.061Z</time>
        <extensions>
          <visugpx:TrkExtension xmlns:visugpx="https://www.visugpx.com/editgpx/">
            <visugpx:node>3</visugpx:node>
            </visugpx:TrkExtension>
        </extensions>
      </trkpt>
    </trkseg>
  </trk>
</gpx>